<?xml version="1.0" encoding="UTF-8" standalone="no" ?>
<gpx xmlns="http://www.topografix.com/GPX/1/1" xmlns:xsi="http://www.w3.org/2001/XMLSchema-instance" xsi:schemaLocation="http://www.topografix.com/GPX/1/1 http://www.topografix.com/GPX/1/1/gpx.xsd" version="1.1" creator="VisuGPX - https://www.visugpx.com">
  <metadata>
    <name>3. Lac du Lou &amp;gt; St-Michel Valloire</name>
  </metadata>
  <trk>
    <name><![CDATA[3. Lac du Lou > St-Michel Valloire]]></name>
    <trkseg>
      <trkpt lat="45.29344" lon="6.53077">
        <ele>2041.9883640977</ele>
        <time>2021-03-13T15:48:44.000Z</time>
      </trkpt>
      <trkpt lat="45.29326" lon="6.53061">
        <ele>2046.5655617794</ele>
        <time>2021-03-13T15:48:44.007Z</time>
      </trkpt>
      <trkpt lat="45.29322" lon="6.53035">
        <ele>2052.2887249294</ele>
        <time>2021-03-13T15:48:44.020Z</time>
      </trkpt>
      <trkpt lat="45.29314" lon="6.53015">
        <ele>2058.7670824856</ele>
        <time>2021-03-13T15:48:44.039Z</time>
      </trkpt>
      <trkpt lat="45.29295" lon="6.52951">
        <ele>2067.1753511218</ele>
        <time>2021-03-13T15:48:44.074Z</time>
      </trkpt>
      <trkpt lat="45.29295" lon="6.52951">
        <ele>2075.2993745185</ele>
        <time>2021-03-13T15:48:44.109Z</time>
      </trkpt>
      <trkpt lat="45.29313" lon="6.52848">
        <ele>2086.5860108842</ele>
        <time>2021-03-13T15:48:44.169Z</time>
      </trkpt>
      <trkpt lat="45.29303" lon="6.52769">
        <ele>2099.2940934926</ele>
        <time>2021-03-13T15:48:44.248Z</time>
      </trkpt>
      <trkpt lat="45.29267" lon="6.5272">
        <ele>2111.6682967143</ele>
        <time>2021-03-13T15:48:44.344Z</time>
      </trkpt>
      <trkpt lat="45.2925" lon="6.52637">
        <ele>2124.7178397773</ele>
        <time>2021-03-13T15:48:44.460Z</time>
      </trkpt>
      <trkpt lat="45.29208" lon="6.52549">
        <ele>2137.2490613668</ele>
        <time>2021-03-13T15:48:44.601Z</time>
      </trkpt>
      <trkpt lat="45.29208" lon="6.5251">
        <ele>2150.0123661144</ele>
        <time>2021-03-13T15:48:44.751Z</time>
      </trkpt>
      <trkpt lat="45.29193" lon="6.52485">
        <ele>2161.8158005073</ele>
        <time>2021-03-13T15:48:44.909Z</time>
      </trkpt>
      <trkpt lat="45.29159" lon="6.52459">
        <ele>2172.6828134977</ele>
        <time>2021-03-13T15:48:45.080Z</time>
      </trkpt>
      <trkpt lat="45.29121" lon="6.52392">
        <ele>2184.4660138037</ele>
        <time>2021-03-13T15:48:45.271Z</time>
      </trkpt>
      <trkpt lat="45.29116" lon="6.52352">
        <ele>2196.8766149605</ele>
        <time>2021-03-13T15:48:45.472Z</time>
      </trkpt>
      <trkpt lat="45.29098" lon="6.52351">
        <ele>2207.5879875873</ele>
        <time>2021-03-13T15:48:45.679Z</time>
      </trkpt>
      <trkpt lat="45.29084" lon="6.52308">
        <ele>2218.9578694769</ele>
        <time>2021-03-13T15:48:45.897Z</time>
      </trkpt>
      <trkpt lat="45.29038" lon="6.52294">
        <ele>2229.5788596442</ele>
        <time>2021-03-13T15:48:46.130Z</time>
      </trkpt>
      <trkpt lat="45.29011" lon="6.52243">
        <ele>2241.4965537966</ele>
        <time>2021-03-13T15:48:46.378Z</time>
      </trkpt>
      <trkpt lat="45.28957" lon="6.52095">
        <ele>2256.3654545957</ele>
        <time>2021-03-13T15:48:46.665Z</time>
      </trkpt>
      <trkpt lat="45.28902" lon="6.5205">
        <ele>2269.8254124126</ele>
        <time>2021-03-13T15:48:46.974Z</time>
      </trkpt>
      <trkpt lat="45.28857" lon="6.52031">
        <ele>2282.6132338023</ele>
        <time>2021-03-13T15:48:47.298Z</time>
      </trkpt>
      <trkpt lat="45.28824" lon="6.51989">
        <ele>2296.6404675479</ele>
        <time>2021-03-13T15:48:47.637Z</time>
      </trkpt>
      <trkpt lat="45.28856" lon="6.51975">
        <ele>2308.6473007711</ele>
        <time>2021-03-13T15:48:47.987Z</time>
      </trkpt>
      <trkpt lat="45.28856" lon="6.51912">
        <ele>2321.8336041126</ele>
        <time>2021-03-13T15:48:48.352Z</time>
      </trkpt>
      <trkpt lat="45.28843" lon="6.51863">
        <ele>2333.6101346614</ele>
        <time>2021-03-13T15:48:48.730Z</time>
      </trkpt>
      <trkpt lat="45.28826" lon="6.51827">
        <ele>2344.4075712021</ele>
        <time>2021-03-13T15:48:49.118Z</time>
      </trkpt>
      <trkpt lat="45.28863" lon="6.51745">
        <ele>2355.0229717</ele>
        <time>2021-03-13T15:48:49.529Z</time>
      </trkpt>
      <trkpt lat="45.28891" lon="6.51759">
        <ele>2364.5045987262</ele>
        <time>2021-03-13T15:48:49.950Z</time>
      </trkpt>
      <trkpt lat="45.28915" lon="6.51788">
        <ele>2373.5598922241</ele>
        <time>2021-03-13T15:48:50.381Z</time>
      </trkpt>
      <trkpt lat="45.28927" lon="6.51777">
        <ele>2381.7749634913</ele>
        <time>2021-03-13T15:48:50.817Z</time>
      </trkpt>
      <trkpt lat="45.28944" lon="6.51776">
        <ele>2389.4539841038</ele>
        <time>2021-03-13T15:48:51.259Z</time>
      </trkpt>
      <trkpt lat="45.28953" lon="6.51736">
        <ele>2396.5325348317</ele>
        <time>2021-03-13T15:48:51.710Z</time>
      </trkpt>
      <trkpt lat="45.28964" lon="6.51716">
        <ele>2403.0703932585</ele>
        <time>2021-03-13T15:48:52.167Z</time>
      </trkpt>
      <trkpt lat="45.28973" lon="6.51646">
        <ele>2409.5926249105</ele>
        <time>2021-03-13T15:48:52.641Z</time>
      </trkpt>
      <trkpt lat="45.28974" lon="6.51559">
        <ele>2416.2781356082</ele>
        <time>2021-03-13T15:48:53.136Z</time>
      </trkpt>
      <trkpt lat="45.28946" lon="6.51425">
        <ele>2423.9769080259</ele>
        <time>2021-03-13T15:48:53.663Z</time>
      </trkpt>
      <trkpt lat="45.28931" lon="6.51427">
        <ele>2429.4630504886</ele>
        <time>2021-03-13T15:48:54.195Z</time>
      </trkpt>
      <trkpt lat="45.28926" lon="6.51393">
        <ele>2435.4490713838</ele>
        <time>2021-03-13T15:48:54.736Z</time>
      </trkpt>
      <trkpt lat="45.28886" lon="6.51357">
        <ele>2441.5661267156</ele>
        <time>2021-03-13T15:48:55.292Z</time>
      </trkpt>
      <trkpt lat="45.28887" lon="6.51347">
        <ele>2446.8411324134</ele>
        <time>2021-03-13T15:48:55.851Z</time>
      </trkpt>
      <trkpt lat="45.28868" lon="6.51329">
        <ele>2451.988538128</ele>
        <time>2021-03-13T15:48:56.418Z</time>
      </trkpt>
      <trkpt lat="45.28861" lon="6.51339">
        <ele>2456.1698268901</ele>
        <time>2021-03-13T15:48:56.988Z</time>
      </trkpt>
      <trkpt lat="45.28854" lon="6.51291">
        <ele>2460.7530804585</ele>
        <time>2021-03-13T15:48:57.569Z</time>
      </trkpt>
      <trkpt lat="45.28862" lon="6.51269">
        <ele>2464.6963867641</ele>
        <time>2021-03-13T15:48:58.156Z</time>
      </trkpt>
      <trkpt lat="45.28873" lon="6.51267">
        <ele>2468.2983329294</ele>
        <time>2021-03-13T15:48:58.747Z</time>
      </trkpt>
      <trkpt lat="45.28907" lon="6.51273">
        <ele>2471.7121738809</ele>
        <time>2021-03-13T15:48:59.349Z</time>
      </trkpt>
      <trkpt lat="45.28931" lon="6.51267">
        <ele>2474.9628282548</ele>
        <time>2021-03-13T15:48:59.960Z</time>
      </trkpt>
      <trkpt lat="45.28961" lon="6.5128">
        <ele>2478.0485215699</ele>
        <time>2021-03-13T15:49:00.581Z</time>
      </trkpt>
      <trkpt lat="45.29044" lon="6.51285">
        <ele>2481.5792913509</ele>
        <time>2021-03-13T15:49:01.230Z</time>
      </trkpt>
      <trkpt lat="45.29054" lon="6.51277">
        <ele>2484.4941013148</ele>
        <time>2021-03-13T15:49:01.882Z</time>
      </trkpt>
      <trkpt lat="45.29066" lon="6.51205">
        <ele>2487.7505917941</ele>
        <time>2021-03-13T15:49:02.552Z</time>
      </trkpt>
      <trkpt lat="45.29065" lon="6.51205">
        <ele>2493.1776744602</ele>
        <time>2021-03-13T15:49:03.222Z</time>
      </trkpt>
      <trkpt lat="45.29046" lon="6.51141">
        <ele>2496.4331047394</ele>
        <time>2021-03-13T15:49:03.908Z</time>
      </trkpt>
      <trkpt lat="45.29049" lon="6.51076">
        <ele>2499.8081663513</ele>
        <time>2021-03-13T15:49:04.610Z</time>
      </trkpt>
      <trkpt lat="45.29023" lon="6.51019">
        <ele>2503.0048478068</ele>
        <time>2021-03-13T15:49:05.328Z</time>
      </trkpt>
      <trkpt lat="45.29001" lon="6.51003">
        <ele>2505.8801686466</ele>
        <time>2021-03-13T15:49:06.054Z</time>
      </trkpt>
      <trkpt lat="45.2897" lon="6.50996">
        <ele>2508.3579247385</ele>
        <time>2021-03-13T15:49:06.790Z</time>
      </trkpt>
      <trkpt lat="45.28957" lon="6.50977">
        <ele>2511.3659379415</ele>
        <time>2021-03-13T15:49:07.532Z</time>
      </trkpt>
      <trkpt lat="45.28954" lon="6.50961">
        <ele>2514.5101908372</ele>
        <time>2021-03-13T15:49:08.278Z</time>
      </trkpt>
      <trkpt lat="45.28922" lon="6.50937">
        <ele>2517.6314391804</ele>
        <time>2021-03-13T15:49:09.036Z</time>
      </trkpt>
      <trkpt lat="45.28897" lon="6.50939">
        <ele>2520.8295526565</ele>
        <time>2021-03-13T15:49:09.803Z</time>
      </trkpt>
      <trkpt lat="45.28875" lon="6.50951">
        <ele>2524.1078424264</ele>
        <time>2021-03-13T15:49:10.578Z</time>
      </trkpt>
      <trkpt lat="45.28854" lon="6.50921">
        <ele>2528.1397656776</ele>
        <time>2021-03-13T15:49:11.362Z</time>
      </trkpt>
      <trkpt lat="45.28808" lon="6.50928">
        <ele>2532.042030169</ele>
        <time>2021-03-13T15:49:12.162Z</time>
      </trkpt>
      <trkpt lat="45.288" lon="6.50936">
        <ele>2535.8185713094</ele>
        <time>2021-03-13T15:49:12.965Z</time>
      </trkpt>
      <trkpt lat="45.28754" lon="6.50931">
        <ele>2540.6318821783</ele>
        <time>2021-03-13T15:49:13.783Z</time>
      </trkpt>
      <trkpt lat="45.28738" lon="6.5095">
        <ele>2544.7810453606</ele>
        <time>2021-03-13T15:49:14.608Z</time>
      </trkpt>
      <trkpt lat="45.28731" lon="6.50945">
        <ele>2549.2550534209</ele>
        <time>2021-03-13T15:49:15.436Z</time>
      </trkpt>
      <trkpt lat="45.28665" lon="6.5089">
        <ele>2554.8813713831</ele>
        <time>2021-03-13T15:49:16.289Z</time>
      </trkpt>
      <trkpt lat="45.28664" lon="6.50882">
        <ele>2559.7145866941</ele>
        <time>2021-03-13T15:49:17.144Z</time>
      </trkpt>
      <trkpt lat="45.28671" lon="6.50884">
        <ele>2564.4901302855</ele>
        <time>2021-03-13T15:49:18.001Z</time>
      </trkpt>
      <trkpt lat="45.28662" lon="6.50861">
        <ele>2569.7039960408</ele>
        <time>2021-03-13T15:49:18.865Z</time>
      </trkpt>
      <trkpt lat="45.28671" lon="6.50853">
        <ele>2574.850449015</ele>
        <time>2021-03-13T15:49:19.732Z</time>
      </trkpt>
      <trkpt lat="45.28644" lon="6.50821">
        <ele>2580.4131561316</ele>
        <time>2021-03-13T15:49:20.611Z</time>
      </trkpt>
      <trkpt lat="45.28641" lon="6.50778">
        <ele>2586.29387178</ele>
        <time>2021-03-13T15:49:21.500Z</time>
      </trkpt>
      <trkpt lat="45.28676" lon="6.50767">
        <ele>2592.0309964157</ele>
        <time>2021-03-13T15:49:22.401Z</time>
      </trkpt>
      <trkpt lat="45.28682" lon="6.50759">
        <ele>2597.4497247382</ele>
        <time>2021-03-13T15:49:23.305Z</time>
      </trkpt>
      <trkpt lat="45.2871" lon="6.50759">
        <ele>2602.6922116137</ele>
        <time>2021-03-13T15:49:24.218Z</time>
      </trkpt>
      <trkpt lat="45.28709" lon="6.50748">
        <ele>2607.9812063142</ele>
        <time>2021-03-13T15:49:25.134Z</time>
      </trkpt>
      <trkpt lat="45.28725" lon="6.50737">
        <ele>2613.1515401998</ele>
        <time>2021-03-13T15:49:26.056Z</time>
      </trkpt>
      <trkpt lat="45.28747" lon="6.50692">
        <ele>2618.5503129451</ele>
        <time>2021-03-13T15:49:26.991Z</time>
      </trkpt>
      <trkpt lat="45.2877" lon="6.50677">
        <ele>2623.6624404827</ele>
        <time>2021-03-13T15:49:27.934Z</time>
      </trkpt>
      <trkpt lat="45.2877" lon="6.50594">
        <ele>2629.2002468351</ele>
        <time>2021-03-13T15:49:28.897Z</time>
      </trkpt>
      <trkpt lat="45.28788" lon="6.50611">
        <ele>2634.081330503</ele>
        <time>2021-03-13T15:49:29.867Z</time>
      </trkpt>
      <trkpt lat="45.28803" lon="6.506">
        <ele>2638.9468510852</ele>
        <time>2021-03-13T15:49:30.842Z</time>
      </trkpt>
      <trkpt lat="45.28818" lon="6.50573">
        <ele>2643.7634350765</ele>
        <time>2021-03-13T15:49:31.825Z</time>
      </trkpt>
      <trkpt lat="45.28855" lon="6.50555">
        <ele>2648.3827526994</ele>
        <time>2021-03-13T15:49:32.821Z</time>
      </trkpt>
      <trkpt lat="45.2889" lon="6.50552">
        <ele>2652.7496885331</ele>
        <time>2021-03-13T15:49:33.829Z</time>
      </trkpt>
      <trkpt lat="45.28895" lon="6.5053">
        <ele>2656.6253131221</ele>
        <time>2021-03-13T15:49:34.842Z</time>
      </trkpt>
      <trkpt lat="45.28884" lon="6.50514">
        <ele>2660.1984776118</ele>
        <time>2021-03-13T15:49:35.860Z</time>
      </trkpt>
      <trkpt lat="45.2889" lon="6.50499">
        <ele>2663.5754528675</ele>
        <time>2021-03-13T15:49:36.882Z</time>
      </trkpt>
      <trkpt lat="45.28908" lon="6.50489">
        <ele>2666.6845539713</ele>
        <time>2021-03-13T15:49:37.911Z</time>
      </trkpt>
      <trkpt lat="45.28929" lon="6.50466">
        <ele>2669.5948214841</ele>
        <time>2021-03-13T15:49:38.949Z</time>
      </trkpt>
      <trkpt lat="45.28938" lon="6.50435">
        <ele>2672.220824802</ele>
        <time>2021-03-13T15:49:39.995Z</time>
      </trkpt>
      <trkpt lat="45.28938" lon="6.50435">
        <ele>2674.1951604807</ele>
        <time>2021-03-13T15:49:41.041Z</time>
      </trkpt>
      <trkpt lat="45.28958" lon="6.50417">
        <ele>2675.9869126908</ele>
        <time>2021-03-13T15:49:42.095Z</time>
      </trkpt>
      <trkpt lat="45.28978" lon="6.50412">
        <ele>2677.3110554632</ele>
        <time>2021-03-13T15:49:43.155Z</time>
      </trkpt>
      <trkpt lat="45.28991" lon="6.50412">
        <ele>2678.2604902304</ele>
        <time>2021-03-13T15:49:44.220Z</time>
      </trkpt>
      <trkpt lat="45.28997" lon="6.50407">
        <ele>2678.808698373</ele>
        <time>2021-03-13T15:49:45.287Z</time>
      </trkpt>
      <trkpt lat="45.29003" lon="6.50394">
        <ele>2679.0010183042</ele>
        <time>2021-03-13T15:49:46.358Z</time>
      </trkpt>
      <trkpt lat="45.29003" lon="6.50394">
        <ele>2678.8193210944</ele>
        <time>2021-03-13T15:49:47.429Z</time>
      </trkpt>
      <trkpt lat="45.29027" lon="6.50369">
        <ele>2678.1216907476</ele>
        <time>2021-03-13T15:49:48.510Z</time>
      </trkpt>
      <trkpt lat="45.29037" lon="6.50364">
        <ele>2677.2298595656</ele>
        <time>2021-03-13T15:49:49.594Z</time>
      </trkpt>
      <trkpt lat="45.29058" lon="6.50346">
        <ele>2675.8407492565</ele>
        <time>2021-03-13T15:49:50.686Z</time>
      </trkpt>
      <trkpt lat="45.29076" lon="6.50338">
        <ele>2674.24677089</ele>
        <time>2021-03-13T15:49:51.785Z</time>
      </trkpt>
      <trkpt lat="45.29079" lon="6.50332">
        <ele>2672.310182495</ele>
        <time>2021-03-13T15:49:52.886Z</time>
      </trkpt>
      <trkpt lat="45.29077" lon="6.50326">
        <ele>2670.0784677374</ele>
        <time>2021-03-13T15:49:53.988Z</time>
      </trkpt>
      <trkpt lat="45.29052" lon="6.50311">
        <ele>2667.410391322</ele>
        <time>2021-03-13T15:49:55.099Z</time>
      </trkpt>
      <trkpt lat="45.29047" lon="6.50299">
        <ele>2664.5973686035</ele>
        <time>2021-03-13T15:49:56.214Z</time>
      </trkpt>
      <trkpt lat="45.29032" lon="6.50293">
        <ele>2661.6011433078</ele>
        <time>2021-03-13T15:49:57.334Z</time>
      </trkpt>
      <trkpt lat="45.29025" lon="6.50282">
        <ele>2658.3698656046</ele>
        <time>2021-03-13T15:49:58.457Z</time>
      </trkpt>
      <trkpt lat="45.29023" lon="6.50263">
        <ele>2654.8521892617</ele>
        <time>2021-03-13T15:49:59.585Z</time>
      </trkpt>
      <trkpt lat="45.29012" lon="6.50246">
        <ele>2651.1925807878</ele>
        <time>2021-03-13T15:50:00.718Z</time>
      </trkpt>
      <trkpt lat="45.29012" lon="6.50241">
        <ele>2647.5781871895</ele>
        <time>2021-03-13T15:50:01.852Z</time>
      </trkpt>
      <trkpt lat="45.29033" lon="6.50232">
        <ele>2643.6792780205</ele>
        <time>2021-03-13T15:50:02.994Z</time>
      </trkpt>
      <trkpt lat="45.29043" lon="6.50233">
        <ele>2639.8133550954</ele>
        <time>2021-03-13T15:50:04.139Z</time>
      </trkpt>
      <trkpt lat="45.2905" lon="6.50224">
        <ele>2635.6410967862</ele>
        <time>2021-03-13T15:50:05.287Z</time>
      </trkpt>
      <trkpt lat="45.29063" lon="6.50223">
        <ele>2631.5170810263</ele>
        <time>2021-03-13T15:50:06.440Z</time>
      </trkpt>
      <trkpt lat="45.29067" lon="6.5021">
        <ele>2627.064536381</ele>
        <time>2021-03-13T15:50:07.596Z</time>
      </trkpt>
      <trkpt lat="45.29072" lon="6.50205">
        <ele>2622.7043051894</ele>
        <time>2021-03-13T15:50:08.754Z</time>
      </trkpt>
      <trkpt lat="45.29074" lon="6.50199">
        <ele>2618.2514943175</ele>
        <time>2021-03-13T15:50:09.914Z</time>
      </trkpt>
      <trkpt lat="45.29083" lon="6.50191">
        <ele>2613.7003916014</ele>
        <time>2021-03-13T15:50:11.077Z</time>
      </trkpt>
      <trkpt lat="45.29082" lon="6.50186">
        <ele>2609.1549928684</ele>
        <time>2021-03-13T15:50:12.241Z</time>
      </trkpt>
      <trkpt lat="45.29102" lon="6.50171">
        <ele>2604.2843893075</ele>
        <time>2021-03-13T15:50:13.413Z</time>
      </trkpt>
      <trkpt lat="45.291" lon="6.5016">
        <ele>2599.5816947878</ele>
        <time>2021-03-13T15:50:14.588Z</time>
      </trkpt>
      <trkpt lat="45.29096" lon="6.50156">
        <ele>2594.96508827</ele>
        <time>2021-03-13T15:50:15.764Z</time>
      </trkpt>
      <trkpt lat="45.29091" lon="6.50143">
        <ele>2590.185400965</ele>
        <time>2021-03-13T15:50:16.944Z</time>
      </trkpt>
      <trkpt lat="45.29096" lon="6.50125">
        <ele>2585.3238580064</ele>
        <time>2021-03-13T15:50:18.128Z</time>
      </trkpt>
      <trkpt lat="45.29113" lon="6.50116">
        <ele>2580.4605123012</ele>
        <time>2021-03-13T15:50:19.318Z</time>
      </trkpt>
      <trkpt lat="45.29119" lon="6.50071">
        <ele>2575.1861798176</ele>
        <time>2021-03-13T15:50:20.519Z</time>
      </trkpt>
      <trkpt lat="45.2914" lon="6.50063">
        <ele>2570.2381208658</ele>
        <time>2021-03-13T15:50:21.727Z</time>
      </trkpt>
      <trkpt lat="45.29146" lon="6.50052">
        <ele>2565.3725585539</ele>
        <time>2021-03-13T15:50:22.939Z</time>
      </trkpt>
      <trkpt lat="45.2915" lon="6.50036">
        <ele>2560.5399053965</ele>
        <time>2021-03-13T15:50:24.155Z</time>
      </trkpt>
      <trkpt lat="45.29135" lon="6.49992">
        <ele>2555.5854590811</ele>
        <time>2021-03-13T15:50:25.382Z</time>
      </trkpt>
      <trkpt lat="45.29153" lon="6.49972">
        <ele>2550.8665939224</ele>
        <time>2021-03-13T15:50:26.617Z</time>
      </trkpt>
      <trkpt lat="45.29171" lon="6.4996">
        <ele>2546.2962251957</ele>
        <time>2021-03-13T15:50:27.858Z</time>
      </trkpt>
      <trkpt lat="45.29197" lon="6.49934">
        <ele>2541.6261966725</ele>
        <time>2021-03-13T15:50:29.110Z</time>
      </trkpt>
      <trkpt lat="45.29197" lon="6.4991">
        <ele>2537.0726557193</ele>
        <time>2021-03-13T15:50:30.368Z</time>
      </trkpt>
      <trkpt lat="45.29207" lon="6.49879">
        <ele>2532.5888864767</ele>
        <time>2021-03-13T15:50:31.634Z</time>
      </trkpt>
      <trkpt lat="45.29218" lon="6.49867">
        <ele>2528.4123557044</ele>
        <time>2021-03-13T15:50:32.904Z</time>
      </trkpt>
      <trkpt lat="45.29219" lon="6.49852">
        <ele>2524.3549642216</ele>
        <time>2021-03-13T15:50:34.178Z</time>
      </trkpt>
      <trkpt lat="45.29254" lon="6.49783">
        <ele>2520.124615937</ele>
        <time>2021-03-13T15:50:35.472Z</time>
      </trkpt>
      <trkpt lat="45.2928" lon="6.49767">
        <ele>2516.2904134739</ele>
        <time>2021-03-13T15:50:36.775Z</time>
      </trkpt>
      <trkpt lat="45.29291" lon="6.49744">
        <ele>2512.4485668793</ele>
        <time>2021-03-13T15:50:38.085Z</time>
      </trkpt>
      <trkpt lat="45.2929" lon="6.49728">
        <ele>2508.8735101637</ele>
        <time>2021-03-13T15:50:39.399Z</time>
      </trkpt>
      <trkpt lat="45.29293" lon="6.49718">
        <ele>2505.5485941593</ele>
        <time>2021-03-13T15:50:40.715Z</time>
      </trkpt>
      <trkpt lat="45.29306" lon="6.49713">
        <ele>2502.4696561173</ele>
        <time>2021-03-13T15:50:42.036Z</time>
      </trkpt>
      <trkpt lat="45.29323" lon="6.49675">
        <ele>2499.3162978063</ele>
        <time>2021-03-13T15:50:43.367Z</time>
      </trkpt>
      <trkpt lat="45.29322" lon="6.4966">
        <ele>2496.4771606371</ele>
        <time>2021-03-13T15:50:44.702Z</time>
      </trkpt>
      <trkpt lat="45.29356" lon="6.4956">
        <ele>2493.4560139471</ele>
        <time>2021-03-13T15:50:46.063Z</time>
      </trkpt>
      <trkpt lat="45.29382" lon="6.49517">
        <ele>2490.8180337944</ele>
        <time>2021-03-13T15:50:47.437Z</time>
      </trkpt>
      <trkpt lat="45.29387" lon="6.49493">
        <ele>2488.5262574432</ele>
        <time>2021-03-13T15:50:48.817Z</time>
      </trkpt>
      <trkpt lat="45.29391" lon="6.49486">
        <ele>2486.5002238388</ele>
        <time>2021-03-13T15:50:50.199Z</time>
      </trkpt>
      <trkpt lat="45.29393" lon="6.49477">
        <ele>2484.6249300891</ele>
        <time>2021-03-13T15:50:51.583Z</time>
      </trkpt>
      <trkpt lat="45.29384" lon="6.49472">
        <ele>2482.9825647384</ele>
        <time>2021-03-13T15:50:52.970Z</time>
      </trkpt>
      <trkpt lat="45.29364" lon="6.49458">
        <ele>2481.4898405721</ele>
        <time>2021-03-13T15:50:54.365Z</time>
      </trkpt>
      <trkpt lat="45.2932" lon="6.49435">
        <ele>2480.2155255887</ele>
        <time>2021-03-13T15:50:55.776Z</time>
      </trkpt>
      <trkpt lat="45.29309" lon="6.49427">
        <ele>2479.1041285886</ele>
        <time>2021-03-13T15:50:57.191Z</time>
      </trkpt>
      <trkpt lat="45.29305" lon="6.49422">
        <ele>2478.1392225592</ele>
        <time>2021-03-13T15:50:58.607Z</time>
      </trkpt>
      <trkpt lat="45.293" lon="6.4942">
        <ele>2477.3571438021</ele>
        <time>2021-03-13T15:51:00.025Z</time>
      </trkpt>
      <trkpt lat="45.29293" lon="6.49411">
        <ele>2476.6328405409</ele>
        <time>2021-03-13T15:51:01.446Z</time>
      </trkpt>
      <trkpt lat="45.29281" lon="6.49408">
        <ele>2476.0952959444</ele>
        <time>2021-03-13T15:51:02.871Z</time>
      </trkpt>
      <trkpt lat="45.29275" lon="6.49404">
        <ele>2475.6711836269</ele>
        <time>2021-03-13T15:51:04.299Z</time>
      </trkpt>
      <trkpt lat="45.29254" lon="6.49399">
        <ele>2475.3973314049</ele>
        <time>2021-03-13T15:51:05.733Z</time>
      </trkpt>
      <trkpt lat="45.29251" lon="6.49396">
        <ele>2475.2156574336</ele>
        <time>2021-03-13T15:51:07.169Z</time>
      </trkpt>
      <trkpt lat="45.29235" lon="6.4939">
        <ele>2475.1899434212</ele>
        <time>2021-03-13T15:51:08.610Z</time>
      </trkpt>
      <trkpt lat="45.2923" lon="6.49385">
        <ele>2475.2146289182</ele>
        <time>2021-03-13T15:51:10.053Z</time>
      </trkpt>
      <trkpt lat="45.29216" lon="6.49368">
        <ele>2475.1930127946</ele>
        <time>2021-03-13T15:51:11.503Z</time>
      </trkpt>
      <trkpt lat="45.29206" lon="6.49363">
        <ele>2475.2949218713</ele>
        <time>2021-03-13T15:51:12.956Z</time>
      </trkpt>
      <trkpt lat="45.29185" lon="6.49374">
        <ele>2475.6796272875</ele>
        <time>2021-03-13T15:51:14.417Z</time>
      </trkpt>
      <trkpt lat="45.29171" lon="6.49377">
        <ele>2476.0099735243</ele>
        <time>2021-03-13T15:51:15.882Z</time>
      </trkpt>
      <trkpt lat="45.29162" lon="6.49374">
        <ele>2476.2983389203</ele>
        <time>2021-03-13T15:51:17.350Z</time>
      </trkpt>
      <trkpt lat="45.29156" lon="6.49376">
        <ele>2476.6547967923</ele>
        <time>2021-03-13T15:51:18.820Z</time>
      </trkpt>
      <trkpt lat="45.29149" lon="6.49383">
        <ele>2477.0905657427</ele>
        <time>2021-03-13T15:51:20.293Z</time>
      </trkpt>
      <trkpt lat="45.29144" lon="6.49398">
        <ele>2477.5644964443</ele>
        <time>2021-03-13T15:51:21.770Z</time>
      </trkpt>
      <trkpt lat="45.2914" lon="6.49405">
        <ele>2477.9798496106</ele>
        <time>2021-03-13T15:51:23.249Z</time>
      </trkpt>
      <trkpt lat="45.2914" lon="6.49415">
        <ele>2478.4435833821</ele>
        <time>2021-03-13T15:51:24.731Z</time>
      </trkpt>
      <trkpt lat="45.29137" lon="6.4942">
        <ele>2478.8530913342</ele>
        <time>2021-03-13T15:51:26.214Z</time>
      </trkpt>
      <trkpt lat="45.29128" lon="6.49416">
        <ele>2479.1645186589</ele>
        <time>2021-03-13T15:51:27.700Z</time>
      </trkpt>
      <trkpt lat="45.29121" lon="6.49416">
        <ele>2479.4845837971</ele>
        <time>2021-03-13T15:51:29.189Z</time>
      </trkpt>
      <trkpt lat="45.29107" lon="6.49427">
        <ele>2479.762437757</ele>
        <time>2021-03-13T15:51:30.683Z</time>
      </trkpt>
      <trkpt lat="45.29093" lon="6.49444">
        <ele>2480.1089048897</ele>
        <time>2021-03-13T15:51:32.183Z</time>
      </trkpt>
      <trkpt lat="45.29079" lon="6.49453">
        <ele>2480.373429002</ele>
        <time>2021-03-13T15:51:33.688Z</time>
      </trkpt>
      <trkpt lat="45.29075" lon="6.49454">
        <ele>2480.625112763</ele>
        <time>2021-03-13T15:51:35.194Z</time>
      </trkpt>
      <trkpt lat="45.29058" lon="6.4945">
        <ele>2480.8135405518</ele>
        <time>2021-03-13T15:51:36.706Z</time>
      </trkpt>
      <trkpt lat="45.29045" lon="6.49455">
        <ele>2481.0575186963</ele>
        <time>2021-03-13T15:51:38.223Z</time>
      </trkpt>
      <trkpt lat="45.29041" lon="6.49454">
        <ele>2481.2274152821</ele>
        <time>2021-03-13T15:51:39.741Z</time>
      </trkpt>
      <trkpt lat="45.29034" lon="6.4944">
        <ele>2481.3277286365</ele>
        <time>2021-03-13T15:51:41.263Z</time>
      </trkpt>
      <trkpt lat="45.29033" lon="6.49416">
        <ele>2481.2581026076</ele>
        <time>2021-03-13T15:51:42.791Z</time>
      </trkpt>
      <trkpt lat="45.2903" lon="6.49406">
        <ele>2481.2004785959</ele>
        <time>2021-03-13T15:51:44.321Z</time>
      </trkpt>
      <trkpt lat="45.29018" lon="6.49383">
        <ele>2481.2006480103</ele>
        <time>2021-03-13T15:51:45.858Z</time>
      </trkpt>
      <trkpt lat="45.29002" lon="6.49367">
        <ele>2481.2554935298</ele>
        <time>2021-03-13T15:51:47.402Z</time>
      </trkpt>
      <trkpt lat="45.28991" lon="6.49346">
        <ele>2480.8625031268</ele>
        <time>2021-03-13T15:51:48.952Z</time>
      </trkpt>
      <trkpt lat="45.28988" lon="6.49312">
        <ele>2480.0711213738</ele>
        <time>2021-03-13T15:51:50.510Z</time>
      </trkpt>
      <trkpt lat="45.28991" lon="6.49292">
        <ele>2479.3509188368</ele>
        <time>2021-03-13T15:51:52.073Z</time>
      </trkpt>
      <trkpt lat="45.28984" lon="6.49271">
        <ele>2478.5899938338</ele>
        <time>2021-03-13T15:51:53.641Z</time>
      </trkpt>
      <trkpt lat="45.28979" lon="6.49262">
        <ele>2477.8631075839</ele>
        <time>2021-03-13T15:51:55.212Z</time>
      </trkpt>
      <trkpt lat="45.28966" lon="6.49256">
        <ele>2477.1385100455</ele>
        <time>2021-03-13T15:51:56.788Z</time>
      </trkpt>
      <trkpt lat="45.28959" lon="6.49248">
        <ele>2476.3296845613</ele>
        <time>2021-03-13T15:51:58.366Z</time>
      </trkpt>
      <trkpt lat="45.28935" lon="6.49233">
        <ele>2475.5818948643</ele>
        <time>2021-03-13T15:51:59.953Z</time>
      </trkpt>
      <trkpt lat="45.28927" lon="6.49225">
        <ele>2474.6569281197</ele>
        <time>2021-03-13T15:52:01.543Z</time>
      </trkpt>
      <trkpt lat="45.28914" lon="6.49218">
        <ele>2473.6987098665</ele>
        <time>2021-03-13T15:52:03.138Z</time>
      </trkpt>
      <trkpt lat="45.2891" lon="6.49209">
        <ele>2472.6094996685</ele>
        <time>2021-03-13T15:52:04.735Z</time>
      </trkpt>
      <trkpt lat="45.28911" lon="6.49205">
        <ele>2471.5094579008</ele>
        <time>2021-03-13T15:52:06.334Z</time>
      </trkpt>
      <trkpt lat="45.28913" lon="6.49191">
        <ele>2470.2579835647</ele>
        <time>2021-03-13T15:52:07.936Z</time>
      </trkpt>
      <trkpt lat="45.28923" lon="6.49168">
        <ele>2468.8822845253</ele>
        <time>2021-03-13T15:52:09.544Z</time>
      </trkpt>
      <trkpt lat="45.28924" lon="6.49134">
        <ele>2467.6522818865</ele>
        <time>2021-03-13T15:52:11.160Z</time>
      </trkpt>
      <trkpt lat="45.28932" lon="6.49097">
        <ele>2466.3596817645</ele>
        <time>2021-03-13T15:52:12.785Z</time>
      </trkpt>
      <trkpt lat="45.28931" lon="6.49073">
        <ele>2465.1297525729</ele>
        <time>2021-03-13T15:52:14.416Z</time>
      </trkpt>
      <trkpt lat="45.28935" lon="6.49059">
        <ele>2463.8957551896</ele>
        <time>2021-03-13T15:52:16.050Z</time>
      </trkpt>
      <trkpt lat="45.28936" lon="6.49043">
        <ele>2462.6175163822</ele>
        <time>2021-03-13T15:52:17.688Z</time>
      </trkpt>
      <trkpt lat="45.28931" lon="6.49026">
        <ele>2461.3302653108</ele>
        <time>2021-03-13T15:52:19.331Z</time>
      </trkpt>
      <trkpt lat="45.28926" lon="6.49014">
        <ele>2460.0136147308</ele>
        <time>2021-03-13T15:52:20.977Z</time>
      </trkpt>
      <trkpt lat="45.28926" lon="6.4901">
        <ele>2458.7762117961</ele>
        <time>2021-03-13T15:52:22.624Z</time>
      </trkpt>
      <trkpt lat="45.28935" lon="6.48982">
        <ele>2457.5500109352</ele>
        <time>2021-03-13T15:52:24.278Z</time>
      </trkpt>
      <trkpt lat="45.28944" lon="6.48969">
        <ele>2456.281067762</ele>
        <time>2021-03-13T15:52:25.936Z</time>
      </trkpt>
      <trkpt lat="45.28958" lon="6.48936">
        <ele>2454.8673885477</ele>
        <time>2021-03-13T15:52:27.604Z</time>
      </trkpt>
      <trkpt lat="45.28964" lon="6.48929">
        <ele>2453.670105088</ele>
        <time>2021-03-13T15:52:29.274Z</time>
      </trkpt>
      <trkpt lat="45.28983" lon="6.48898">
        <ele>2452.2361495502</ele>
        <time>2021-03-13T15:52:30.954Z</time>
      </trkpt>
      <trkpt lat="45.28988" lon="6.48892">
        <ele>2451.0049722706</ele>
        <time>2021-03-13T15:52:32.636Z</time>
      </trkpt>
      <trkpt lat="45.28996" lon="6.48878">
        <ele>2449.7196540084</ele>
        <time>2021-03-13T15:52:34.322Z</time>
      </trkpt>
      <trkpt lat="45.28999" lon="6.48847">
        <ele>2448.4959938193</ele>
        <time>2021-03-13T15:52:36.016Z</time>
      </trkpt>
      <trkpt lat="45.29" lon="6.48826">
        <ele>2447.3476458377</ele>
        <time>2021-03-13T15:52:37.714Z</time>
      </trkpt>
      <trkpt lat="45.28999" lon="6.48816">
        <ele>2446.3191336451</ele>
        <time>2021-03-13T15:52:39.415Z</time>
      </trkpt>
      <trkpt lat="45.29" lon="6.48812">
        <ele>2445.2270279597</ele>
        <time>2021-03-13T15:52:41.117Z</time>
      </trkpt>
      <trkpt lat="45.28998" lon="6.48809">
        <ele>2444.2306924867</ele>
        <time>2021-03-13T15:52:42.820Z</time>
      </trkpt>
      <trkpt lat="45.28997" lon="6.48798">
        <ele>2443.1927802283</ele>
        <time>2021-03-13T15:52:44.525Z</time>
      </trkpt>
      <trkpt lat="45.29" lon="6.48792">
        <ele>2442.0135173448</ele>
        <time>2021-03-13T15:52:46.232Z</time>
      </trkpt>
      <trkpt lat="45.29003" lon="6.4878">
        <ele>2440.8170026948</ele>
        <time>2021-03-13T15:52:47.942Z</time>
      </trkpt>
      <trkpt lat="45.28999" lon="6.48762">
        <ele>2439.691823753</ele>
        <time>2021-03-13T15:52:49.657Z</time>
      </trkpt>
      <trkpt lat="45.28999" lon="6.48749">
        <ele>2438.4860799106</ele>
        <time>2021-03-13T15:52:51.375Z</time>
      </trkpt>
      <trkpt lat="45.28997" lon="6.48739">
        <ele>2437.249886651</ele>
        <time>2021-03-13T15:52:53.095Z</time>
      </trkpt>
      <trkpt lat="45.28998" lon="6.48736">
        <ele>2435.969125626</ele>
        <time>2021-03-13T15:52:54.816Z</time>
      </trkpt>
      <trkpt lat="45.29001" lon="6.48732">
        <ele>2434.5868833361</ele>
        <time>2021-03-13T15:52:56.538Z</time>
      </trkpt>
      <trkpt lat="45.28999" lon="6.48722">
        <ele>2433.2314548428</ele>
        <time>2021-03-13T15:52:58.263Z</time>
      </trkpt>
      <trkpt lat="45.29003" lon="6.48715">
        <ele>2431.7019335582</ele>
        <time>2021-03-13T15:52:59.990Z</time>
      </trkpt>
      <trkpt lat="45.28998" lon="6.48708">
        <ele>2430.2227247211</ele>
        <time>2021-03-13T15:53:01.719Z</time>
      </trkpt>
      <trkpt lat="45.29005" lon="6.48703">
        <ele>2428.543353642</ele>
        <time>2021-03-13T15:53:03.451Z</time>
      </trkpt>
      <trkpt lat="45.29008" lon="6.48692">
        <ele>2426.8059604886</ele>
        <time>2021-03-13T15:53:05.186Z</time>
      </trkpt>
      <trkpt lat="45.29009" lon="6.48664">
        <ele>2424.8769240949</ele>
        <time>2021-03-13T15:53:06.927Z</time>
      </trkpt>
      <trkpt lat="45.29013" lon="6.48648">
        <ele>2422.993711026</ele>
        <time>2021-03-13T15:53:08.672Z</time>
      </trkpt>
      <trkpt lat="45.29015" lon="6.48631">
        <ele>2421.074319608</ele>
        <time>2021-03-13T15:53:10.422Z</time>
      </trkpt>
      <trkpt lat="45.29013" lon="6.48602">
        <ele>2418.9816491373</ele>
        <time>2021-03-13T15:53:12.178Z</time>
      </trkpt>
      <trkpt lat="45.29015" lon="6.48592">
        <ele>2416.9674040987</ele>
        <time>2021-03-13T15:53:13.937Z</time>
      </trkpt>
      <trkpt lat="45.29015" lon="6.48592">
        <ele>2414.877320508</ele>
        <time>2021-03-13T15:53:15.696Z</time>
      </trkpt>
      <trkpt lat="45.29022" lon="6.48576">
        <ele>2412.7186744309</ele>
        <time>2021-03-13T15:53:17.459Z</time>
      </trkpt>
      <trkpt lat="45.29022" lon="6.48547">
        <ele>2410.4546496708</ele>
        <time>2021-03-13T15:53:19.229Z</time>
      </trkpt>
      <trkpt lat="45.29031" lon="6.48516">
        <ele>2408.0084501038</ele>
        <time>2021-03-13T15:53:21.007Z</time>
      </trkpt>
      <trkpt lat="45.29034" lon="6.48494">
        <ele>2405.3972380948</ele>
        <time>2021-03-13T15:53:22.790Z</time>
      </trkpt>
      <trkpt lat="45.29049" lon="6.48478">
        <ele>2402.6782708892</ele>
        <time>2021-03-13T15:53:24.580Z</time>
      </trkpt>
      <trkpt lat="45.29053" lon="6.48477">
        <ele>2399.9834046284</ele>
        <time>2021-03-13T15:53:26.371Z</time>
      </trkpt>
      <trkpt lat="45.29054" lon="6.48465">
        <ele>2397.1039488762</ele>
        <time>2021-03-13T15:53:28.165Z</time>
      </trkpt>
      <trkpt lat="45.29056" lon="6.48463">
        <ele>2394.263068659</ele>
        <time>2021-03-13T15:53:29.959Z</time>
      </trkpt>
      <trkpt lat="45.29059" lon="6.48472">
        <ele>2391.5083238264</ele>
        <time>2021-03-13T15:53:31.756Z</time>
      </trkpt>
      <trkpt lat="45.2906" lon="6.48493">
        <ele>2388.9102274328</ele>
        <time>2021-03-13T15:53:33.558Z</time>
      </trkpt>
      <trkpt lat="45.29064" lon="6.48489">
        <ele>2385.8912648313</ele>
        <time>2021-03-13T15:53:35.361Z</time>
      </trkpt>
      <trkpt lat="45.29071" lon="6.48452">
        <ele>2382.2166507692</ele>
        <time>2021-03-13T15:53:37.173Z</time>
      </trkpt>
      <trkpt lat="45.29074" lon="6.48436">
        <ele>2379.0394036588</ele>
        <time>2021-03-13T15:53:38.989Z</time>
      </trkpt>
      <trkpt lat="45.29078" lon="6.48429">
        <ele>2376.0526088788</ele>
        <time>2021-03-13T15:53:40.807Z</time>
      </trkpt>
      <trkpt lat="45.29077" lon="6.48418">
        <ele>2373.2085618813</ele>
        <time>2021-03-13T15:53:42.628Z</time>
      </trkpt>
      <trkpt lat="45.29081" lon="6.484">
        <ele>2370.1773490799</ele>
        <time>2021-03-13T15:53:44.453Z</time>
      </trkpt>
      <trkpt lat="45.29075" lon="6.48377">
        <ele>2367.3889574358</ele>
        <time>2021-03-13T15:53:46.284Z</time>
      </trkpt>
      <trkpt lat="45.29074" lon="6.48355">
        <ele>2364.5734209262</ele>
        <time>2021-03-13T15:53:48.120Z</time>
      </trkpt>
      <trkpt lat="45.2907" lon="6.48317">
        <ele>2361.5224321182</ele>
        <time>2021-03-13T15:53:49.966Z</time>
      </trkpt>
      <trkpt lat="45.29065" lon="6.48303">
        <ele>2358.9180240801</ele>
        <time>2021-03-13T15:53:51.815Z</time>
      </trkpt>
      <trkpt lat="45.29055" lon="6.48289">
        <ele>2356.6902291562</ele>
        <time>2021-03-13T15:53:53.669Z</time>
      </trkpt>
      <trkpt lat="45.29061" lon="6.48289">
        <ele>2354.4017413266</ele>
        <time>2021-03-13T15:53:55.525Z</time>
      </trkpt>
      <trkpt lat="45.29061" lon="6.48287">
        <ele>2352.3392570458</ele>
        <time>2021-03-13T15:53:57.382Z</time>
      </trkpt>
      <trkpt lat="45.29049" lon="6.48271">
        <ele>2350.5451401932</ele>
        <time>2021-03-13T15:53:59.244Z</time>
      </trkpt>
      <trkpt lat="45.2905" lon="6.48261">
        <ele>2348.727270509</ele>
        <time>2021-03-13T15:54:01.108Z</time>
      </trkpt>
      <trkpt lat="45.29048" lon="6.48238">
        <ele>2347.011201301</ele>
        <time>2021-03-13T15:54:02.978Z</time>
      </trkpt>
      <trkpt lat="45.29044" lon="6.4823">
        <ele>2345.4541413092</ele>
        <time>2021-03-13T15:54:04.850Z</time>
      </trkpt>
      <trkpt lat="45.29041" lon="6.48228">
        <ele>2344.0748243659</ele>
        <time>2021-03-13T15:54:06.723Z</time>
      </trkpt>
      <trkpt lat="45.29048" lon="6.48223">
        <ele>2342.9649283876</ele>
        <time>2021-03-13T15:54:08.599Z</time>
      </trkpt>
      <trkpt lat="45.29049" lon="6.48221">
        <ele>2341.9079402715</ele>
        <time>2021-03-13T15:54:10.476Z</time>
      </trkpt>
      <trkpt lat="45.29042" lon="6.48213">
        <ele>2340.8206478996</ele>
        <time>2021-03-13T15:54:12.356Z</time>
      </trkpt>
      <trkpt lat="45.29038" lon="6.48212">
        <ele>2339.9476319676</ele>
        <time>2021-03-13T15:54:14.237Z</time>
      </trkpt>
      <trkpt lat="45.29039" lon="6.48209">
        <ele>2339.2458063593</ele>
        <time>2021-03-13T15:54:16.119Z</time>
      </trkpt>
      <trkpt lat="45.29042" lon="6.48207">
        <ele>2338.6654625114</ele>
        <time>2021-03-13T15:54:18.002Z</time>
      </trkpt>
      <trkpt lat="45.29063" lon="6.48199">
        <ele>2338.0736490254</ele>
        <time>2021-03-13T15:54:19.893Z</time>
      </trkpt>
      <trkpt lat="45.29064" lon="6.48188">
        <ele>2337.6309999612</ele>
        <time>2021-03-13T15:54:21.786Z</time>
      </trkpt>
      <trkpt lat="45.29063" lon="6.4818">
        <ele>2337.2724165368</ele>
        <time>2021-03-13T15:54:23.681Z</time>
      </trkpt>
      <trkpt lat="45.29071" lon="6.48179">
        <ele>2337.0543144261</ele>
        <time>2021-03-13T15:54:25.579Z</time>
      </trkpt>
      <trkpt lat="45.29057" lon="6.48153">
        <ele>2336.7975834942</ele>
        <time>2021-03-13T15:54:27.484Z</time>
      </trkpt>
      <trkpt lat="45.29057" lon="6.48147">
        <ele>2336.6863197598</ele>
        <time>2021-03-13T15:54:29.391Z</time>
      </trkpt>
      <trkpt lat="45.29058" lon="6.48143">
        <ele>2336.642603736</ele>
        <time>2021-03-13T15:54:31.299Z</time>
      </trkpt>
      <trkpt lat="45.29062" lon="6.48139">
        <ele>2336.6591240968</ele>
        <time>2021-03-13T15:54:33.208Z</time>
      </trkpt>
      <trkpt lat="45.29073" lon="6.48134">
        <ele>2336.7196009839</ele>
        <time>2021-03-13T15:54:35.121Z</time>
      </trkpt>
      <trkpt lat="45.29082" lon="6.48121">
        <ele>2336.8106205941</ele>
        <time>2021-03-13T15:54:37.038Z</time>
      </trkpt>
      <trkpt lat="45.29091" lon="6.48118">
        <ele>2336.9341141028</ele>
        <time>2021-03-13T15:54:38.959Z</time>
      </trkpt>
      <trkpt lat="45.29097" lon="6.48113">
        <ele>2337.0498014515</ele>
        <time>2021-03-13T15:54:40.882Z</time>
      </trkpt>
      <trkpt lat="45.29099" lon="6.48105">
        <ele>2337.1018402147</ele>
        <time>2021-03-13T15:54:42.807Z</time>
      </trkpt>
      <trkpt lat="45.29096" lon="6.48085">
        <ele>2337.0537709775</ele>
        <time>2021-03-13T15:54:44.737Z</time>
      </trkpt>
      <trkpt lat="45.29097" lon="6.48062">
        <ele>2336.9823120563</ele>
        <time>2021-03-13T15:54:46.672Z</time>
      </trkpt>
      <trkpt lat="45.29109" lon="6.48053">
        <ele>2337.0288253385</ele>
        <time>2021-03-13T15:54:48.612Z</time>
      </trkpt>
      <trkpt lat="45.29124" lon="6.48037">
        <ele>2336.9262907555</ele>
        <time>2021-03-13T15:54:50.558Z</time>
      </trkpt>
      <trkpt lat="45.2913" lon="6.48033">
        <ele>2336.8611527482</ele>
        <time>2021-03-13T15:54:52.506Z</time>
      </trkpt>
      <trkpt lat="45.29129" lon="6.4803">
        <ele>2336.7067975569</ele>
        <time>2021-03-13T15:54:54.455Z</time>
      </trkpt>
      <trkpt lat="45.29141" lon="6.48014">
        <ele>2336.3871526501</ele>
        <time>2021-03-13T15:54:56.409Z</time>
      </trkpt>
      <trkpt lat="45.29143" lon="6.48009">
        <ele>2336.0819221419</ele>
        <time>2021-03-13T15:54:58.365Z</time>
      </trkpt>
      <trkpt lat="45.29147" lon="6.48005">
        <ele>2335.7094899458</ele>
        <time>2021-03-13T15:55:00.323Z</time>
      </trkpt>
      <trkpt lat="45.29143" lon="6.47999">
        <ele>2335.2631366505</ele>
        <time>2021-03-13T15:55:02.282Z</time>
      </trkpt>
      <trkpt lat="45.29144" lon="6.47995">
        <ele>2334.7364043946</ele>
        <time>2021-03-13T15:55:04.243Z</time>
      </trkpt>
      <trkpt lat="45.29157" lon="6.47987">
        <ele>2334.0825637471</ele>
        <time>2021-03-13T15:55:06.208Z</time>
      </trkpt>
      <trkpt lat="45.29143" lon="6.47976">
        <ele>2333.3250004891</ele>
        <time>2021-03-13T15:55:08.179Z</time>
      </trkpt>
      <trkpt lat="45.29131" lon="6.47959">
        <ele>2332.439424251</ele>
        <time>2021-03-13T15:55:10.155Z</time>
      </trkpt>
      <trkpt lat="45.2912" lon="6.47951">
        <ele>2331.4070953916</ele>
        <time>2021-03-13T15:55:12.135Z</time>
      </trkpt>
      <trkpt lat="45.29109" lon="6.47918">
        <ele>2330.2013183758</ele>
        <time>2021-03-13T15:55:14.124Z</time>
      </trkpt>
      <trkpt lat="45.29102" lon="6.47881">
        <ele>2328.9135390628</ele>
        <time>2021-03-13T15:55:16.122Z</time>
      </trkpt>
      <trkpt lat="45.29102" lon="6.47871">
        <ele>2327.6329487926</ele>
        <time>2021-03-13T15:55:18.122Z</time>
      </trkpt>
      <trkpt lat="45.29098" lon="6.47865">
        <ele>2326.1175746647</ele>
        <time>2021-03-13T15:55:20.124Z</time>
      </trkpt>
      <trkpt lat="45.29087" lon="6.4786">
        <ele>2324.3267327031</ele>
        <time>2021-03-13T15:55:22.130Z</time>
      </trkpt>
      <trkpt lat="45.29086" lon="6.47854">
        <ele>2322.5142718263</ele>
        <time>2021-03-13T15:55:24.137Z</time>
      </trkpt>
      <trkpt lat="45.29089" lon="6.47844">
        <ele>2320.5983299307</ele>
        <time>2021-03-13T15:55:26.147Z</time>
      </trkpt>
      <trkpt lat="45.29088" lon="6.4783">
        <ele>2318.4394045878</ele>
        <time>2021-03-13T15:55:28.160Z</time>
      </trkpt>
      <trkpt lat="45.29069" lon="6.47793">
        <ele>2315.7216303205</ele>
        <time>2021-03-13T15:55:30.184Z</time>
      </trkpt>
      <trkpt lat="45.29065" lon="6.47784">
        <ele>2313.1362662274</ele>
        <time>2021-03-13T15:55:32.210Z</time>
      </trkpt>
      <trkpt lat="45.29067" lon="6.47766">
        <ele>2310.4797015064</ele>
        <time>2021-03-13T15:55:34.240Z</time>
      </trkpt>
      <trkpt lat="45.29063" lon="6.47761">
        <ele>2307.4413822308</ele>
        <time>2021-03-13T15:55:36.272Z</time>
      </trkpt>
      <trkpt lat="45.29067" lon="6.47758">
        <ele>2304.3481508826</ele>
        <time>2021-03-13T15:55:38.305Z</time>
      </trkpt>
      <trkpt lat="45.29052" lon="6.47728">
        <ele>2300.7390636301</ele>
        <time>2021-03-13T15:55:40.347Z</time>
      </trkpt>
      <trkpt lat="45.29033" lon="6.47727">
        <ele>2296.5521271315</ele>
        <time>2021-03-13T15:55:42.395Z</time>
      </trkpt>
      <trkpt lat="45.29031" lon="6.47723">
        <ele>2292.6805280608</ele>
        <time>2021-03-13T15:55:44.444Z</time>
      </trkpt>
      <trkpt lat="45.29012" lon="6.47713">
        <ele>2288.1989829632</ele>
        <time>2021-03-13T15:55:46.500Z</time>
      </trkpt>
      <trkpt lat="45.28999" lon="6.47697">
        <ele>2283.799678932</ele>
        <time>2021-03-13T15:55:48.562Z</time>
      </trkpt>
      <trkpt lat="45.28974" lon="6.47693">
        <ele>2278.8373540065</ele>
        <time>2021-03-13T15:55:50.632Z</time>
      </trkpt>
      <trkpt lat="45.2898" lon="6.47723">
        <ele>2274.2926295624</ele>
        <time>2021-03-13T15:55:52.709Z</time>
      </trkpt>
      <trkpt lat="45.28975" lon="6.47727">
        <ele>2269.49854352</ele>
        <time>2021-03-13T15:55:54.788Z</time>
      </trkpt>
      <trkpt lat="45.28965" lon="6.47728">
        <ele>2264.4556639084</ele>
        <time>2021-03-13T15:55:56.871Z</time>
      </trkpt>
      <trkpt lat="45.28957" lon="6.47719">
        <ele>2259.4022439265</ele>
        <time>2021-03-13T15:55:58.957Z</time>
      </trkpt>
      <trkpt lat="45.28946" lon="6.47692">
        <ele>2254.2302991355</ele>
        <time>2021-03-13T15:56:01.050Z</time>
      </trkpt>
      <trkpt lat="45.28942" lon="6.47668">
        <ele>2249.1236457155</ele>
        <time>2021-03-13T15:56:03.149Z</time>
      </trkpt>
      <trkpt lat="45.28931" lon="6.47637">
        <ele>2243.8024017869</ele>
        <time>2021-03-13T15:56:05.256Z</time>
      </trkpt>
      <trkpt lat="45.28901" lon="6.47614">
        <ele>2238.0862067039</ele>
        <time>2021-03-13T15:56:07.375Z</time>
      </trkpt>
      <trkpt lat="45.28857" lon="6.47565">
        <ele>2231.8291006464</ele>
        <time>2021-03-13T15:56:09.512Z</time>
      </trkpt>
      <trkpt lat="45.28839" lon="6.47559">
        <ele>2226.3650573306</ele>
        <time>2021-03-13T15:56:11.656Z</time>
      </trkpt>
      <trkpt lat="45.28809" lon="6.47561">
        <ele>2220.8605477054</ele>
        <time>2021-03-13T15:56:13.810Z</time>
      </trkpt>
      <trkpt lat="45.28781" lon="6.47553">
        <ele>2215.2851671902</ele>
        <time>2021-03-13T15:56:15.973Z</time>
      </trkpt>
      <trkpt lat="45.28753" lon="6.47539">
        <ele>2209.7984389515</ele>
        <time>2021-03-13T15:56:18.146Z</time>
      </trkpt>
      <trkpt lat="45.28736" lon="6.4754">
        <ele>2204.7237967206</ele>
        <time>2021-03-13T15:56:20.325Z</time>
      </trkpt>
      <trkpt lat="45.28717" lon="6.47528">
        <ele>2199.6798857136</ele>
        <time>2021-03-13T15:56:22.511Z</time>
      </trkpt>
      <trkpt lat="45.28703" lon="6.47528">
        <ele>2194.935253848</ele>
        <time>2021-03-13T15:56:24.701Z</time>
      </trkpt>
      <trkpt lat="45.2869" lon="6.47505">
        <ele>2190.1900410722</ele>
        <time>2021-03-13T15:56:26.898Z</time>
      </trkpt>
      <trkpt lat="45.28677" lon="6.475">
        <ele>2185.6111217957</ele>
        <time>2021-03-13T15:56:29.100Z</time>
      </trkpt>
      <trkpt lat="45.28656" lon="6.47514">
        <ele>2181.0925369149</ele>
        <time>2021-03-13T15:56:31.310Z</time>
      </trkpt>
      <trkpt lat="45.28659" lon="6.47497">
        <ele>2176.874534752</ele>
        <time>2021-03-13T15:56:33.524Z</time>
      </trkpt>
      <trkpt lat="45.2865" lon="6.47501">
        <ele>2172.6519419936</ele>
        <time>2021-03-13T15:56:35.741Z</time>
      </trkpt>
      <trkpt lat="45.28647" lon="6.47485">
        <ele>2168.4648594838</ele>
        <time>2021-03-13T15:56:37.962Z</time>
      </trkpt>
      <trkpt lat="45.28646" lon="6.47471">
        <ele>2164.4211115493</ele>
        <time>2021-03-13T15:56:40.186Z</time>
      </trkpt>
      <trkpt lat="45.28642" lon="6.47471">
        <ele>2160.5332681346</ele>
        <time>2021-03-13T15:56:42.412Z</time>
      </trkpt>
      <trkpt lat="45.28636" lon="6.47461">
        <ele>2156.5783227228</ele>
        <time>2021-03-13T15:56:44.641Z</time>
      </trkpt>
      <trkpt lat="45.2864" lon="6.47443">
        <ele>2152.7628211799</ele>
        <time>2021-03-13T15:56:46.874Z</time>
      </trkpt>
      <trkpt lat="45.28634" lon="6.4744">
        <ele>2149.0133128855</ele>
        <time>2021-03-13T15:56:49.109Z</time>
      </trkpt>
      <trkpt lat="45.28625" lon="6.47446">
        <ele>2145.3585057239</ele>
        <time>2021-03-13T15:56:51.347Z</time>
      </trkpt>
      <trkpt lat="45.28617" lon="6.47425">
        <ele>2141.5276029015</ele>
        <time>2021-03-13T15:56:53.591Z</time>
      </trkpt>
      <trkpt lat="45.28615" lon="6.47428">
        <ele>2138.0139777362</ele>
        <time>2021-03-13T15:56:55.836Z</time>
      </trkpt>
      <trkpt lat="45.28613" lon="6.47427">
        <ele>2134.4661321054</ele>
        <time>2021-03-13T15:56:58.081Z</time>
      </trkpt>
      <trkpt lat="45.28606" lon="6.4741">
        <ele>2130.7201558776</ele>
        <time>2021-03-13T15:57:00.331Z</time>
      </trkpt>
      <trkpt lat="45.28599" lon="6.47404">
        <ele>2127.1099549726</ele>
        <time>2021-03-13T15:57:02.584Z</time>
      </trkpt>
      <trkpt lat="45.28594" lon="6.47406">
        <ele>2123.5975962097</ele>
        <time>2021-03-13T15:57:04.838Z</time>
      </trkpt>
      <trkpt lat="45.28591" lon="6.47395">
        <ele>2119.9658993499</ele>
        <time>2021-03-13T15:57:07.095Z</time>
      </trkpt>
      <trkpt lat="45.28572" lon="6.47389">
        <ele>2116.2556583761</ele>
        <time>2021-03-13T15:57:09.359Z</time>
      </trkpt>
      <trkpt lat="45.28529" lon="6.4736">
        <ele>2112.1785962299</ele>
        <time>2021-03-13T15:57:11.639Z</time>
      </trkpt>
      <trkpt lat="45.28486" lon="6.47313">
        <ele>2108.1622839872</ele>
        <time>2021-03-13T15:57:13.937Z</time>
      </trkpt>
      <trkpt lat="45.28396" lon="6.47261">
        <ele>2103.7431988571</ele>
        <time>2021-03-13T15:57:16.267Z</time>
      </trkpt>
      <trkpt lat="45.28371" lon="6.47245">
        <ele>2099.9451590677</ele>
        <time>2021-03-13T15:57:18.606Z</time>
      </trkpt>
      <trkpt lat="45.28352" lon="6.47227">
        <ele>2096.2758637691</ele>
        <time>2021-03-13T15:57:20.953Z</time>
      </trkpt>
      <trkpt lat="45.28338" lon="6.47222">
        <ele>2092.7847577504</ele>
        <time>2021-03-13T15:57:23.305Z</time>
      </trkpt>
      <trkpt lat="45.28332" lon="6.47227">
        <ele>2089.4585149515</ele>
        <time>2021-03-13T15:57:25.659Z</time>
      </trkpt>
      <trkpt lat="45.28331" lon="6.47234">
        <ele>2086.2620533841</ele>
        <time>2021-03-13T15:57:28.015Z</time>
      </trkpt>
      <trkpt lat="45.28341" lon="6.47251">
        <ele>2083.2678894344</ele>
        <time>2021-03-13T15:57:30.376Z</time>
      </trkpt>
      <trkpt lat="45.28355" lon="6.47305">
        <ele>2080.1318544993</ele>
        <time>2021-03-13T15:57:32.751Z</time>
      </trkpt>
      <trkpt lat="45.2836" lon="6.47315">
        <ele>2077.0743843944</ele>
        <time>2021-03-13T15:57:35.128Z</time>
      </trkpt>
      <trkpt lat="45.28373" lon="6.47332">
        <ele>2074.1265248532</ele>
        <time>2021-03-13T15:57:37.512Z</time>
      </trkpt>
      <trkpt lat="45.28391" lon="6.47419">
        <ele>2070.9117817858</ele>
        <time>2021-03-13T15:57:39.917Z</time>
      </trkpt>
      <trkpt lat="45.28371" lon="6.47384">
        <ele>2067.8676350569</ele>
        <time>2021-03-13T15:57:42.332Z</time>
      </trkpt>
      <trkpt lat="45.28361" lon="6.4738">
        <ele>2064.8143631358</ele>
        <time>2021-03-13T15:57:44.751Z</time>
      </trkpt>
      <trkpt lat="45.28338" lon="6.47389">
        <ele>2061.5639365321</ele>
        <time>2021-03-13T15:57:47.178Z</time>
      </trkpt>
      <trkpt lat="45.28325" lon="6.47389">
        <ele>2058.5114806475</ele>
        <time>2021-03-13T15:57:49.609Z</time>
      </trkpt>
      <trkpt lat="45.28321" lon="6.47392">
        <ele>2055.5470983145</ele>
        <time>2021-03-13T15:57:52.042Z</time>
      </trkpt>
      <trkpt lat="45.28308" lon="6.47391">
        <ele>2052.4918154694</ele>
        <time>2021-03-13T15:57:54.479Z</time>
      </trkpt>
      <trkpt lat="45.28302" lon="6.47388">
        <ele>2049.6019241815</ele>
        <time>2021-03-13T15:57:56.918Z</time>
      </trkpt>
      <trkpt lat="45.28291" lon="6.47368">
        <ele>2046.7803074263</ele>
        <time>2021-03-13T15:57:59.363Z</time>
      </trkpt>
      <trkpt lat="45.2828" lon="6.4736">
        <ele>2043.9018857679</ele>
        <time>2021-03-13T15:58:01.812Z</time>
      </trkpt>
      <trkpt lat="45.28269" lon="6.47358">
        <ele>2040.9986737522</ele>
        <time>2021-03-13T15:58:04.265Z</time>
      </trkpt>
      <trkpt lat="45.28253" lon="6.47363">
        <ele>2037.9781737329</ele>
        <time>2021-03-13T15:58:06.723Z</time>
      </trkpt>
      <trkpt lat="45.2824" lon="6.47363">
        <ele>2035.0840810093</ele>
        <time>2021-03-13T15:58:09.185Z</time>
      </trkpt>
      <trkpt lat="45.2821" lon="6.47353">
        <ele>2032.0752066636</ele>
        <time>2021-03-13T15:58:11.658Z</time>
      </trkpt>
      <trkpt lat="45.28207" lon="6.4736">
        <ele>2029.2778368814</ele>
        <time>2021-03-13T15:58:14.133Z</time>
      </trkpt>
      <trkpt lat="45.28206" lon="6.47368">
        <ele>2026.5766798205</ele>
        <time>2021-03-13T15:58:16.610Z</time>
      </trkpt>
      <trkpt lat="45.28211" lon="6.47384">
        <ele>2024.0197747508</ele>
        <time>2021-03-13T15:58:19.091Z</time>
      </trkpt>
      <trkpt lat="45.28208" lon="6.47404">
        <ele>2021.170694905</ele>
        <time>2021-03-13T15:58:21.576Z</time>
      </trkpt>
      <trkpt lat="45.2821" lon="6.47414">
        <ele>2018.6665287952</ele>
        <time>2021-03-13T15:58:24.064Z</time>
      </trkpt>
      <trkpt lat="45.28228" lon="6.47446">
        <ele>2016.3028747962</ele>
        <time>2021-03-13T15:58:26.561Z</time>
      </trkpt>
      <trkpt lat="45.28229" lon="6.47458">
        <ele>2013.8817735268</ele>
        <time>2021-03-13T15:58:29.061Z</time>
      </trkpt>
      <trkpt lat="45.28228" lon="6.47463">
        <ele>2011.5348928435</ele>
        <time>2021-03-13T15:58:31.563Z</time>
      </trkpt>
      <trkpt lat="45.28221" lon="6.47469">
        <ele>2009.1324104189</ele>
        <time>2021-03-13T15:58:34.067Z</time>
      </trkpt>
      <trkpt lat="45.28215" lon="6.47486">
        <ele>2006.7294669973</ele>
        <time>2021-03-13T15:58:36.576Z</time>
      </trkpt>
      <trkpt lat="45.28215" lon="6.47492">
        <ele>2004.5079049251</ele>
        <time>2021-03-13T15:58:39.086Z</time>
      </trkpt>
      <trkpt lat="45.28208" lon="6.47484">
        <ele>2002.2558757094</ele>
        <time>2021-03-13T15:58:41.599Z</time>
      </trkpt>
      <trkpt lat="45.28198" lon="6.47482">
        <ele>1999.9413248474</ele>
        <time>2021-03-13T15:58:44.115Z</time>
      </trkpt>
      <trkpt lat="45.28194" lon="6.47484">
        <ele>1997.7714097873</ele>
        <time>2021-03-13T15:58:46.633Z</time>
      </trkpt>
      <trkpt lat="45.28188" lon="6.47495">
        <ele>1995.5595303425</ele>
        <time>2021-03-13T15:58:49.154Z</time>
      </trkpt>
      <trkpt lat="45.28173" lon="6.47509">
        <ele>1993.1819256861</ele>
        <time>2021-03-13T15:58:51.681Z</time>
      </trkpt>
      <trkpt lat="45.28164" lon="6.4752">
        <ele>1990.9876283774</ele>
        <time>2021-03-13T15:58:54.212Z</time>
      </trkpt>
      <trkpt lat="45.28159" lon="6.47523">
        <ele>1988.8843114065</ele>
        <time>2021-03-13T15:58:56.745Z</time>
      </trkpt>
      <trkpt lat="45.28142" lon="6.47526">
        <ele>1986.6972522222</ele>
        <time>2021-03-13T15:58:59.283Z</time>
      </trkpt>
      <trkpt lat="45.28133" lon="6.47521">
        <ele>1984.6195722663</ele>
        <time>2021-03-13T15:59:01.825Z</time>
      </trkpt>
      <trkpt lat="45.28118" lon="6.47517">
        <ele>1982.4512519599</ele>
        <time>2021-03-13T15:59:04.372Z</time>
      </trkpt>
      <trkpt lat="45.28101" lon="6.47524">
        <ele>1980.4320252895</ele>
        <time>2021-03-13T15:59:06.925Z</time>
      </trkpt>
      <trkpt lat="45.28078" lon="6.47542">
        <ele>1978.5274023457</ele>
        <time>2021-03-13T15:59:09.486Z</time>
      </trkpt>
      <trkpt lat="45.28074" lon="6.47537">
        <ele>1976.5706977591</ele>
        <time>2021-03-13T15:59:12.049Z</time>
      </trkpt>
      <trkpt lat="45.28074" lon="6.47529">
        <ele>1974.6199215171</ele>
        <time>2021-03-13T15:59:14.614Z</time>
      </trkpt>
      <trkpt lat="45.28071" lon="6.47532">
        <ele>1972.7710425137</ele>
        <time>2021-03-13T15:59:17.180Z</time>
      </trkpt>
      <trkpt lat="45.28052" lon="6.47536">
        <ele>1970.8701298583</ele>
        <time>2021-03-13T15:59:19.753Z</time>
      </trkpt>
      <trkpt lat="45.28032" lon="6.47525">
        <ele>1968.796563098</ele>
        <time>2021-03-13T15:59:22.333Z</time>
      </trkpt>
      <trkpt lat="45.28023" lon="6.47527">
        <ele>1966.8610439006</ele>
        <time>2021-03-13T15:59:24.916Z</time>
      </trkpt>
      <trkpt lat="45.2801" lon="6.47526">
        <ele>1964.79077268</ele>
        <time>2021-03-13T15:59:27.503Z</time>
      </trkpt>
      <trkpt lat="45.28" lon="6.47519">
        <ele>1962.7319003754</ele>
        <time>2021-03-13T15:59:30.094Z</time>
      </trkpt>
      <trkpt lat="45.27998" lon="6.47505">
        <ele>1960.7559503341</ele>
        <time>2021-03-13T15:59:32.688Z</time>
      </trkpt>
      <trkpt lat="45.2799" lon="6.47492">
        <ele>1958.6890212644</ele>
        <time>2021-03-13T15:59:35.286Z</time>
      </trkpt>
      <trkpt lat="45.27975" lon="6.47473">
        <ele>1956.4845683385</ele>
        <time>2021-03-13T15:59:37.891Z</time>
      </trkpt>
      <trkpt lat="45.27973" lon="6.47468">
        <ele>1954.5167638507</ele>
        <time>2021-03-13T15:59:40.497Z</time>
      </trkpt>
      <trkpt lat="45.2797" lon="6.47446">
        <ele>1952.4317209779</ele>
        <time>2021-03-13T15:59:43.109Z</time>
      </trkpt>
      <trkpt lat="45.27963" lon="6.47421">
        <ele>1950.3499180973</ele>
        <time>2021-03-13T15:59:45.727Z</time>
      </trkpt>
      <trkpt lat="45.27964" lon="6.47413">
        <ele>1948.4293323415</ele>
        <time>2021-03-13T15:59:48.347Z</time>
      </trkpt>
      <trkpt lat="45.27961" lon="6.474">
        <ele>1946.4955355465</ele>
        <time>2021-03-13T15:59:50.970Z</time>
      </trkpt>
      <trkpt lat="45.2796" lon="6.47378">
        <ele>1944.5725443174</ele>
        <time>2021-03-13T15:59:53.598Z</time>
      </trkpt>
      <trkpt lat="45.27964" lon="6.47374">
        <ele>1942.6135322743</ele>
        <time>2021-03-13T15:59:56.228Z</time>
      </trkpt>
      <trkpt lat="45.27965" lon="6.47368">
        <ele>1940.6008544122</ele>
        <time>2021-03-13T15:59:58.859Z</time>
      </trkpt>
      <trkpt lat="45.27956" lon="6.4736">
        <ele>1938.4429507047</ele>
        <time>2021-03-13T16:00:01.493Z</time>
      </trkpt>
      <trkpt lat="45.27956" lon="6.4734">
        <ele>1936.3306653458</ele>
        <time>2021-03-13T16:00:04.132Z</time>
      </trkpt>
      <trkpt lat="45.27934" lon="6.47303">
        <ele>1933.8389867512</ele>
        <time>2021-03-13T16:00:06.783Z</time>
      </trkpt>
      <trkpt lat="45.27933" lon="6.47291">
        <ele>1931.6712343129</ele>
        <time>2021-03-13T16:00:09.436Z</time>
      </trkpt>
      <trkpt lat="45.27938" lon="6.47261">
        <ele>1929.5314855326</ele>
        <time>2021-03-13T16:00:12.097Z</time>
      </trkpt>
      <trkpt lat="45.27916" lon="6.47212">
        <ele>1926.9317904528</ele>
        <time>2021-03-13T16:00:14.771Z</time>
      </trkpt>
      <trkpt lat="45.2789" lon="6.47169">
        <ele>1924.3549938464</ele>
        <time>2021-03-13T16:00:17.459Z</time>
      </trkpt>
      <trkpt lat="45.2788" lon="6.4716">
        <ele>1922.0298638626</ele>
        <time>2021-03-13T16:00:20.151Z</time>
      </trkpt>
      <trkpt lat="45.27865" lon="6.47158">
        <ele>1919.6976190844</ele>
        <time>2021-03-13T16:00:22.848Z</time>
      </trkpt>
      <trkpt lat="45.27849" lon="6.47164">
        <ele>1917.4162423673</ele>
        <time>2021-03-13T16:00:25.550Z</time>
      </trkpt>
      <trkpt lat="45.27843" lon="6.47174">
        <ele>1915.2465369894</ele>
        <time>2021-03-13T16:00:28.255Z</time>
      </trkpt>
      <trkpt lat="45.2784" lon="6.47203">
        <ele>1913.1670936978</ele>
        <time>2021-03-13T16:00:30.967Z</time>
      </trkpt>
      <trkpt lat="45.27825" lon="6.47223">
        <ele>1910.876589516</ele>
        <time>2021-03-13T16:00:33.686Z</time>
      </trkpt>
      <trkpt lat="45.27818" lon="6.4724">
        <ele>1908.6716168321</ele>
        <time>2021-03-13T16:00:36.409Z</time>
      </trkpt>
      <trkpt lat="45.27811" lon="6.47304">
        <ele>1906.3684144164</ele>
        <time>2021-03-13T16:00:39.148Z</time>
      </trkpt>
      <trkpt lat="45.2782" lon="6.47341">
        <ele>1904.3387511348</ele>
        <time>2021-03-13T16:00:41.896Z</time>
      </trkpt>
      <trkpt lat="45.27811" lon="6.47367">
        <ele>1902.2254179195</ele>
        <time>2021-03-13T16:00:44.651Z</time>
      </trkpt>
      <trkpt lat="45.27795" lon="6.4737">
        <ele>1900.0520535726</ele>
        <time>2021-03-13T16:00:47.411Z</time>
      </trkpt>
      <trkpt lat="45.27755" lon="6.47373">
        <ele>1897.7213198065</ele>
        <time>2021-03-13T16:00:50.184Z</time>
      </trkpt>
      <trkpt lat="45.27703" lon="6.47373">
        <ele>1895.7421715036</ele>
        <time>2021-03-13T16:00:52.975Z</time>
      </trkpt>
      <trkpt lat="45.27678" lon="6.47368">
        <ele>1893.7995866989</ele>
        <time>2021-03-13T16:00:55.774Z</time>
      </trkpt>
      <trkpt lat="45.27621" lon="6.47319">
        <ele>1891.5965778768</ele>
        <time>2021-03-13T16:00:58.595Z</time>
      </trkpt>
      <trkpt lat="45.2761" lon="6.47315">
        <ele>1889.6302699155</ele>
        <time>2021-03-13T16:01:01.421Z</time>
      </trkpt>
      <trkpt lat="45.27591" lon="6.47319">
        <ele>1887.5455043219</ele>
        <time>2021-03-13T16:01:04.253Z</time>
      </trkpt>
      <trkpt lat="45.2757" lon="6.47335">
        <ele>1885.6110824183</ele>
        <time>2021-03-13T16:01:07.093Z</time>
      </trkpt>
      <trkpt lat="45.2756" lon="6.47336">
        <ele>1883.6902819428</ele>
        <time>2021-03-13T16:01:09.936Z</time>
      </trkpt>
      <trkpt lat="45.27555" lon="6.47332">
        <ele>1881.7913314834</ele>
        <time>2021-03-13T16:01:12.781Z</time>
      </trkpt>
      <trkpt lat="45.27554" lon="6.47325">
        <ele>1879.9236376034</ele>
        <time>2021-03-13T16:01:15.628Z</time>
      </trkpt>
      <trkpt lat="45.27537" lon="6.47337">
        <ele>1878.0013460371</ele>
        <time>2021-03-13T16:01:18.481Z</time>
      </trkpt>
      <trkpt lat="45.27527" lon="6.47336">
        <ele>1876.0506296253</ele>
        <time>2021-03-13T16:01:21.337Z</time>
      </trkpt>
      <trkpt lat="45.2751" lon="6.47352">
        <ele>1874.1967795908</ele>
        <time>2021-03-13T16:01:24.200Z</time>
      </trkpt>
      <trkpt lat="45.27503" lon="6.47343">
        <ele>1872.225451947</ele>
        <time>2021-03-13T16:01:27.066Z</time>
      </trkpt>
      <trkpt lat="45.27477" lon="6.47363">
        <ele>1870.253744035</ele>
        <time>2021-03-13T16:01:29.942Z</time>
      </trkpt>
      <trkpt lat="45.2747" lon="6.47374">
        <ele>1868.3634162036</ele>
        <time>2021-03-13T16:01:32.822Z</time>
      </trkpt>
      <trkpt lat="45.27454" lon="6.47389">
        <ele>1866.3684990941</ele>
        <time>2021-03-13T16:01:35.708Z</time>
      </trkpt>
      <trkpt lat="45.27423" lon="6.47377">
        <ele>1864.0646214921</ele>
        <time>2021-03-13T16:01:38.605Z</time>
      </trkpt>
      <trkpt lat="45.27423" lon="6.47377">
        <ele>1861.991722262</ele>
        <time>2021-03-13T16:01:41.502Z</time>
      </trkpt>
      <trkpt lat="45.27413" lon="6.4737">
        <ele>1859.7292719514</ele>
        <time>2021-03-13T16:01:44.402Z</time>
      </trkpt>
      <trkpt lat="45.27401" lon="6.47368">
        <ele>1857.3837313533</ele>
        <time>2021-03-13T16:01:47.306Z</time>
      </trkpt>
      <trkpt lat="45.27382" lon="6.47381">
        <ele>1855.0057083232</ele>
        <time>2021-03-13T16:01:50.217Z</time>
      </trkpt>
      <trkpt lat="45.27374" lon="6.47381">
        <ele>1852.515061197</ele>
        <time>2021-03-13T16:01:53.131Z</time>
      </trkpt>
      <trkpt lat="45.27364" lon="6.47376">
        <ele>1849.858317018</ele>
        <time>2021-03-13T16:01:56.049Z</time>
      </trkpt>
      <trkpt lat="45.27346" lon="6.47351">
        <ele>1846.8773919147</ele>
        <time>2021-03-13T16:01:58.975Z</time>
      </trkpt>
      <trkpt lat="45.2733" lon="6.47324">
        <ele>1843.7060275695</ele>
        <time>2021-03-13T16:02:01.909Z</time>
      </trkpt>
      <trkpt lat="45.27322" lon="6.47307">
        <ele>1840.4859285728</ele>
        <time>2021-03-13T16:02:04.848Z</time>
      </trkpt>
      <trkpt lat="45.27313" lon="6.47296">
        <ele>1837.1978624824</ele>
        <time>2021-03-13T16:02:07.791Z</time>
      </trkpt>
      <trkpt lat="45.27303" lon="6.47291">
        <ele>1833.8070082288</ele>
        <time>2021-03-13T16:02:10.738Z</time>
      </trkpt>
      <trkpt lat="45.27293" lon="6.4729">
        <ele>1830.3088005466</ele>
        <time>2021-03-13T16:02:13.688Z</time>
      </trkpt>
      <trkpt lat="45.27285" lon="6.47286">
        <ele>1826.6374467276</ele>
        <time>2021-03-13T16:02:16.641Z</time>
      </trkpt>
      <trkpt lat="45.27276" lon="6.4728">
        <ele>1822.8085666885</ele>
        <time>2021-03-13T16:02:19.597Z</time>
      </trkpt>
      <trkpt lat="45.27259" lon="6.47264">
        <ele>1818.6991851042</ele>
        <time>2021-03-13T16:02:22.560Z</time>
      </trkpt>
      <trkpt lat="45.27248" lon="6.4725">
        <ele>1814.5192547992</ele>
        <time>2021-03-13T16:02:25.528Z</time>
      </trkpt>
      <trkpt lat="45.27237" lon="6.47228">
        <ele>1810.0549250365</ele>
        <time>2021-03-13T16:02:28.502Z</time>
      </trkpt>
      <trkpt lat="45.27234" lon="6.47214">
        <ele>1805.6638709967</ele>
        <time>2021-03-13T16:02:31.480Z</time>
      </trkpt>
      <trkpt lat="45.27228" lon="6.47202">
        <ele>1801.1580523315</ele>
        <time>2021-03-13T16:02:34.461Z</time>
      </trkpt>
      <trkpt lat="45.27209" lon="6.47184">
        <ele>1796.3792140499</ele>
        <time>2021-03-13T16:02:37.450Z</time>
      </trkpt>
      <trkpt lat="45.27203" lon="6.47174">
        <ele>1791.6202044631</ele>
        <time>2021-03-13T16:02:40.442Z</time>
      </trkpt>
      <trkpt lat="45.27199" lon="6.47162">
        <ele>1786.7825877431</ele>
        <time>2021-03-13T16:02:43.437Z</time>
      </trkpt>
      <trkpt lat="45.27192" lon="6.47149">
        <ele>1781.8377143734</ele>
        <time>2021-03-13T16:02:46.436Z</time>
      </trkpt>
      <trkpt lat="45.2717" lon="6.47122">
        <ele>1776.3475030563</ele>
        <time>2021-03-13T16:02:49.445Z</time>
      </trkpt>
      <trkpt lat="45.27163" lon="6.47108">
        <ele>1771.1422859181</ele>
        <time>2021-03-13T16:02:52.458Z</time>
      </trkpt>
      <trkpt lat="45.27153" lon="6.4708">
        <ele>1765.6373350689</ele>
        <time>2021-03-13T16:02:55.478Z</time>
      </trkpt>
      <trkpt lat="45.27145" lon="6.47064">
        <ele>1760.3002685676</ele>
        <time>2021-03-13T16:02:58.503Z</time>
      </trkpt>
      <trkpt lat="45.27141" lon="6.47043">
        <ele>1754.9614226337</ele>
        <time>2021-03-13T16:03:01.533Z</time>
      </trkpt>
      <trkpt lat="45.27138" lon="6.47006">
        <ele>1749.6537435625</ele>
        <time>2021-03-13T16:03:04.572Z</time>
      </trkpt>
      <trkpt lat="45.27131" lon="6.46991">
        <ele>1744.5818510474</ele>
        <time>2021-03-13T16:03:07.615Z</time>
      </trkpt>
      <trkpt lat="45.27119" lon="6.46976">
        <ele>1739.4520508216</ele>
        <time>2021-03-13T16:03:10.663Z</time>
      </trkpt>
      <trkpt lat="45.27098" lon="6.46961">
        <ele>1734.2232877665</ele>
        <time>2021-03-13T16:03:13.719Z</time>
      </trkpt>
      <trkpt lat="45.27074" lon="6.46957">
        <ele>1728.9577267752</ele>
        <time>2021-03-13T16:03:16.783Z</time>
      </trkpt>
      <trkpt lat="45.27066" lon="6.46954">
        <ele>1724.1396307305</ele>
        <time>2021-03-13T16:03:19.850Z</time>
      </trkpt>
      <trkpt lat="45.27061" lon="6.46945">
        <ele>1719.5050141878</ele>
        <time>2021-03-13T16:03:22.920Z</time>
      </trkpt>
      <trkpt lat="45.27059" lon="6.46925">
        <ele>1714.9854868374</ele>
        <time>2021-03-13T16:03:25.994Z</time>
      </trkpt>
      <trkpt lat="45.27045" lon="6.4696">
        <ele>1710.4446056945</ele>
        <time>2021-03-13T16:03:29.077Z</time>
      </trkpt>
      <trkpt lat="45.2704" lon="6.46986">
        <ele>1706.1530975549</ele>
        <time>2021-03-13T16:03:32.167Z</time>
      </trkpt>
      <trkpt lat="45.27039" lon="6.47036">
        <ele>1702.0304904476</ele>
        <time>2021-03-13T16:03:35.269Z</time>
      </trkpt>
      <trkpt lat="45.27031" lon="6.47044">
        <ele>1697.9100873304</ele>
        <time>2021-03-13T16:03:38.374Z</time>
      </trkpt>
      <trkpt lat="45.27025" lon="6.47042">
        <ele>1693.9361854483</ele>
        <time>2021-03-13T16:03:41.481Z</time>
      </trkpt>
      <trkpt lat="45.2701" lon="6.47028">
        <ele>1689.9908712551</ele>
        <time>2021-03-13T16:03:44.594Z</time>
      </trkpt>
      <trkpt lat="45.26998" lon="6.47025">
        <ele>1686.1990930095</ele>
        <time>2021-03-13T16:03:47.711Z</time>
      </trkpt>
      <trkpt lat="45.26992" lon="6.47034">
        <ele>1682.611347377</ele>
        <time>2021-03-13T16:03:50.831Z</time>
      </trkpt>
      <trkpt lat="45.26924" lon="6.47056">
        <ele>1678.5441359405</ele>
        <time>2021-03-13T16:03:53.974Z</time>
      </trkpt>
      <trkpt lat="45.26919" lon="6.47059">
        <ele>1675.2149912983</ele>
        <time>2021-03-13T16:03:57.119Z</time>
      </trkpt>
      <trkpt lat="45.26878" lon="6.47038">
        <ele>1671.4510742159</ele>
        <time>2021-03-13T16:04:00.279Z</time>
      </trkpt>
      <trkpt lat="45.26851" lon="6.47039">
        <ele>1668.2011342684</ele>
        <time>2021-03-13T16:04:03.448Z</time>
      </trkpt>
      <trkpt lat="45.26801" lon="6.47028">
        <ele>1665.0018142305</ele>
        <time>2021-03-13T16:04:06.634Z</time>
      </trkpt>
      <trkpt lat="45.26778" lon="6.47037">
        <ele>1662.2224180229</ele>
        <time>2021-03-13T16:04:09.827Z</time>
      </trkpt>
      <trkpt lat="45.26761" lon="6.47029">
        <ele>1659.4601792163</ele>
        <time>2021-03-13T16:04:13.026Z</time>
      </trkpt>
      <trkpt lat="45.26753" lon="6.47009">
        <ele>1656.7339852757</ele>
        <time>2021-03-13T16:04:16.231Z</time>
      </trkpt>
      <trkpt lat="45.26747" lon="6.47006">
        <ele>1654.2817842153</ele>
        <time>2021-03-13T16:04:19.438Z</time>
      </trkpt>
      <trkpt lat="45.26741" lon="6.47006">
        <ele>1651.9784994195</ele>
        <time>2021-03-13T16:04:22.647Z</time>
      </trkpt>
      <trkpt lat="45.26726" lon="6.47026">
        <ele>1649.9100600901</ele>
        <time>2021-03-13T16:04:25.863Z</time>
      </trkpt>
      <trkpt lat="45.267" lon="6.4705">
        <ele>1647.7370805735</ele>
        <time>2021-03-13T16:04:29.089Z</time>
      </trkpt>
      <trkpt lat="45.26693" lon="6.47046">
        <ele>1645.7128393258</ele>
        <time>2021-03-13T16:04:32.318Z</time>
      </trkpt>
      <trkpt lat="45.26692" lon="6.4704">
        <ele>1643.7672349823</ele>
        <time>2021-03-13T16:04:35.548Z</time>
      </trkpt>
      <trkpt lat="45.26694" lon="6.47029">
        <ele>1641.8827258599</ele>
        <time>2021-03-13T16:04:38.781Z</time>
      </trkpt>
      <trkpt lat="45.26705" lon="6.47024">
        <ele>1640.1965135709</ele>
        <time>2021-03-13T16:04:42.018Z</time>
      </trkpt>
      <trkpt lat="45.26707" lon="6.47017">
        <ele>1638.3900442368</ele>
        <time>2021-03-13T16:04:45.256Z</time>
      </trkpt>
      <trkpt lat="45.26704" lon="6.47011">
        <ele>1636.5204475141</ele>
        <time>2021-03-13T16:04:48.496Z</time>
      </trkpt>
      <trkpt lat="45.267" lon="6.4701">
        <ele>1634.6915639415</ele>
        <time>2021-03-13T16:04:51.738Z</time>
      </trkpt>
      <trkpt lat="45.26682" lon="6.47022">
        <ele>1632.8065155332</ele>
        <time>2021-03-13T16:04:54.986Z</time>
      </trkpt>
      <trkpt lat="45.26652" lon="6.47054">
        <ele>1630.8512204621</ele>
        <time>2021-03-13T16:04:58.247Z</time>
      </trkpt>
      <trkpt lat="45.2663" lon="6.47086">
        <ele>1628.8071100746</ele>
        <time>2021-03-13T16:05:01.518Z</time>
      </trkpt>
      <trkpt lat="45.26624" lon="6.47086">
        <ele>1626.8218955742</ele>
        <time>2021-03-13T16:05:04.791Z</time>
      </trkpt>
      <trkpt lat="45.2662" lon="6.4708">
        <ele>1624.8095280555</ele>
        <time>2021-03-13T16:05:08.066Z</time>
      </trkpt>
      <trkpt lat="45.26627" lon="6.47023">
        <ele>1622.6356135484</ele>
        <time>2021-03-13T16:05:11.355Z</time>
      </trkpt>
      <trkpt lat="45.26626" lon="6.47014">
        <ele>1620.490136573</ele>
        <time>2021-03-13T16:05:14.646Z</time>
      </trkpt>
      <trkpt lat="45.26621" lon="6.4701">
        <ele>1618.2787169494</ele>
        <time>2021-03-13T16:05:17.939Z</time>
      </trkpt>
      <trkpt lat="45.26616" lon="6.4701">
        <ele>1616.0288614795</ele>
        <time>2021-03-13T16:05:21.233Z</time>
      </trkpt>
      <trkpt lat="45.26569" lon="6.47076">
        <ele>1613.4107493603</ele>
        <time>2021-03-13T16:05:24.550Z</time>
      </trkpt>
      <trkpt lat="45.2656" lon="6.47102">
        <ele>1611.0623629225</ele>
        <time>2021-03-13T16:05:27.873Z</time>
      </trkpt>
      <trkpt lat="45.26554" lon="6.47109">
        <ele>1608.6307653239</ele>
        <time>2021-03-13T16:05:31.199Z</time>
      </trkpt>
      <trkpt lat="45.26549" lon="6.47111">
        <ele>1606.1298995819</ele>
        <time>2021-03-13T16:05:34.527Z</time>
      </trkpt>
      <trkpt lat="45.26544" lon="6.47102">
        <ele>1603.5333831015</ele>
        <time>2021-03-13T16:05:37.857Z</time>
      </trkpt>
      <trkpt lat="45.26532" lon="6.4706">
        <ele>1600.666473875</ele>
        <time>2021-03-13T16:05:41.198Z</time>
      </trkpt>
      <trkpt lat="45.26513" lon="6.47025">
        <ele>1597.8861092127</ele>
        <time>2021-03-13T16:05:44.549Z</time>
      </trkpt>
      <trkpt lat="45.26488" lon="6.4699">
        <ele>1595.0454186702</ele>
        <time>2021-03-13T16:05:47.912Z</time>
      </trkpt>
      <trkpt lat="45.26459" lon="6.46925">
        <ele>1591.807637066</ele>
        <time>2021-03-13T16:05:51.293Z</time>
      </trkpt>
      <trkpt lat="45.26451" lon="6.46895">
        <ele>1588.938847524</ele>
        <time>2021-03-13T16:05:54.682Z</time>
      </trkpt>
      <trkpt lat="45.26452" lon="6.46873">
        <ele>1586.1540223552</ele>
        <time>2021-03-13T16:05:58.076Z</time>
      </trkpt>
      <trkpt lat="45.26456" lon="6.46859">
        <ele>1583.4499774586</ele>
        <time>2021-03-13T16:06:01.474Z</time>
      </trkpt>
      <trkpt lat="45.26455" lon="6.46844">
        <ele>1580.6493033376</ele>
        <time>2021-03-13T16:06:04.875Z</time>
      </trkpt>
      <trkpt lat="45.26452" lon="6.46838">
        <ele>1577.9561067181</ele>
        <time>2021-03-13T16:06:08.278Z</time>
      </trkpt>
      <trkpt lat="45.26444" lon="6.46835">
        <ele>1575.288826548</ele>
        <time>2021-03-13T16:06:11.683Z</time>
      </trkpt>
      <trkpt lat="45.26436" lon="6.46838">
        <ele>1572.7081922445</ele>
        <time>2021-03-13T16:06:15.091Z</time>
      </trkpt>
      <trkpt lat="45.26427" lon="6.46847">
        <ele>1570.2313733885</ele>
        <time>2021-03-13T16:06:18.503Z</time>
      </trkpt>
      <trkpt lat="45.26421" lon="6.46864">
        <ele>1567.7675704952</ele>
        <time>2021-03-13T16:06:21.919Z</time>
      </trkpt>
      <trkpt lat="45.26411" lon="6.46912">
        <ele>1565.269068661</ele>
        <time>2021-03-13T16:06:25.347Z</time>
      </trkpt>
      <trkpt lat="45.26405" lon="6.46919">
        <ele>1562.7356214959</ele>
        <time>2021-03-13T16:06:28.778Z</time>
      </trkpt>
      <trkpt lat="45.264" lon="6.46919">
        <ele>1560.2405615437</ele>
        <time>2021-03-13T16:06:32.210Z</time>
      </trkpt>
      <trkpt lat="45.26395" lon="6.46914">
        <ele>1557.7386880689</ele>
        <time>2021-03-13T16:06:35.644Z</time>
      </trkpt>
      <trkpt lat="45.26378" lon="6.46844">
        <ele>1554.9881474782</ele>
        <time>2021-03-13T16:06:39.096Z</time>
      </trkpt>
      <trkpt lat="45.2637" lon="6.46773">
        <ele>1552.1361170263</ele>
        <time>2021-03-13T16:06:42.565Z</time>
      </trkpt>
      <trkpt lat="45.26365" lon="6.4676">
        <ele>1549.5980551844</ele>
        <time>2021-03-13T16:06:46.037Z</time>
      </trkpt>
      <trkpt lat="45.26359" lon="6.46758">
        <ele>1547.1477229231</ele>
        <time>2021-03-13T16:06:49.512Z</time>
      </trkpt>
      <trkpt lat="45.26352" lon="6.46759">
        <ele>1544.7659337696</ele>
        <time>2021-03-13T16:06:52.989Z</time>
      </trkpt>
      <trkpt lat="45.26343" lon="6.46776">
        <ele>1542.523075591</ele>
        <time>2021-03-13T16:06:56.471Z</time>
      </trkpt>
      <trkpt lat="45.26333" lon="6.46779">
        <ele>1540.1867758072</ele>
        <time>2021-03-13T16:06:59.956Z</time>
      </trkpt>
      <trkpt lat="45.26324" lon="6.46775">
        <ele>1537.82777146</ele>
        <time>2021-03-13T16:07:03.444Z</time>
      </trkpt>
      <trkpt lat="45.26319" lon="6.46764">
        <ele>1535.4612695475</ele>
        <time>2021-03-13T16:07:06.935Z</time>
      </trkpt>
      <trkpt lat="45.26317" lon="6.46756">
        <ele>1533.1358732694</ele>
        <time>2021-03-13T16:07:10.429Z</time>
      </trkpt>
      <trkpt lat="45.26316" lon="6.46741">
        <ele>1530.7353748474</ele>
        <time>2021-03-13T16:07:13.926Z</time>
      </trkpt>
      <trkpt lat="45.2632" lon="6.46727">
        <ele>1528.3778985738</ele>
        <time>2021-03-13T16:07:17.427Z</time>
      </trkpt>
      <trkpt lat="45.26344" lon="6.46695">
        <ele>1525.8685868586</ele>
        <time>2021-03-13T16:07:20.939Z</time>
      </trkpt>
      <trkpt lat="45.26375" lon="6.46687">
        <ele>1523.6646684784</ele>
        <time>2021-03-13T16:07:24.461Z</time>
      </trkpt>
      <trkpt lat="45.2638" lon="6.46684">
        <ele>1521.3724054523</ele>
        <time>2021-03-13T16:07:27.985Z</time>
      </trkpt>
      <trkpt lat="45.2638" lon="6.46677">
        <ele>1518.9944941642</ele>
        <time>2021-03-13T16:07:31.511Z</time>
      </trkpt>
      <trkpt lat="45.26375" lon="6.4667">
        <ele>1516.563984745</ele>
        <time>2021-03-13T16:07:35.039Z</time>
      </trkpt>
      <trkpt lat="45.26338" lon="6.46657">
        <ele>1513.9212846315</ele>
        <time>2021-03-13T16:07:38.580Z</time>
      </trkpt>
      <trkpt lat="45.26286" lon="6.46655">
        <ele>1511.3414384229</ele>
        <time>2021-03-13T16:07:42.138Z</time>
      </trkpt>
      <trkpt lat="45.2625" lon="6.4666">
        <ele>1508.8088156448</ele>
        <time>2021-03-13T16:07:45.708Z</time>
      </trkpt>
      <trkpt lat="45.26234" lon="6.46656">
        <ele>1506.3723151985</ele>
        <time>2021-03-13T16:07:49.283Z</time>
      </trkpt>
      <trkpt lat="45.26234" lon="6.46638">
        <ele>1503.985929791</ele>
        <time>2021-03-13T16:07:52.863Z</time>
      </trkpt>
      <trkpt lat="45.26255" lon="6.46623">
        <ele>1501.8164078717</ele>
        <time>2021-03-13T16:07:56.450Z</time>
      </trkpt>
      <trkpt lat="45.26263" lon="6.46585">
        <ele>1499.3235174676</ele>
        <time>2021-03-13T16:08:00.047Z</time>
      </trkpt>
      <trkpt lat="45.26242" lon="6.46513">
        <ele>1496.4044465792</ele>
        <time>2021-03-13T16:08:03.662Z</time>
      </trkpt>
      <trkpt lat="45.26242" lon="6.46496">
        <ele>1494.130538614</ele>
        <time>2021-03-13T16:08:07.281Z</time>
      </trkpt>
      <trkpt lat="45.26248" lon="6.46477">
        <ele>1491.9298209064</ele>
        <time>2021-03-13T16:08:10.905Z</time>
      </trkpt>
      <trkpt lat="45.26255" lon="6.46459">
        <ele>1489.7859019891</ele>
        <time>2021-03-13T16:08:14.534Z</time>
      </trkpt>
      <trkpt lat="45.26259" lon="6.46453">
        <ele>1487.6931450495</ele>
        <time>2021-03-13T16:08:18.165Z</time>
      </trkpt>
      <trkpt lat="45.26263" lon="6.4645">
        <ele>1485.6096426741</ele>
        <time>2021-03-13T16:08:21.798Z</time>
      </trkpt>
      <trkpt lat="45.26296" lon="6.46447">
        <ele>1483.6266605063</ele>
        <time>2021-03-13T16:08:25.442Z</time>
      </trkpt>
      <trkpt lat="45.26302" lon="6.46442">
        <ele>1481.5096018127</ele>
        <time>2021-03-13T16:08:29.088Z</time>
      </trkpt>
      <trkpt lat="45.26305" lon="6.4643">
        <ele>1479.2984148097</ele>
        <time>2021-03-13T16:08:32.737Z</time>
      </trkpt>
      <trkpt lat="45.26308" lon="6.4641">
        <ele>1477.0065475957</ele>
        <time>2021-03-13T16:08:36.391Z</time>
      </trkpt>
      <trkpt lat="45.26305" lon="6.46384">
        <ele>1474.5636221986</ele>
        <time>2021-03-13T16:08:40.051Z</time>
      </trkpt>
      <trkpt lat="45.26304" lon="6.46358">
        <ele>1472.1146582917</ele>
        <time>2021-03-13T16:08:43.717Z</time>
      </trkpt>
      <trkpt lat="45.26301" lon="6.46346">
        <ele>1469.6317508966</ele>
        <time>2021-03-13T16:08:47.386Z</time>
      </trkpt>
      <trkpt lat="45.26299" lon="6.46338">
        <ele>1467.0698665238</ele>
        <time>2021-03-13T16:08:51.057Z</time>
      </trkpt>
      <trkpt lat="45.26278" lon="6.4632">
        <ele>1464.387323346</ele>
        <time>2021-03-13T16:08:54.736Z</time>
      </trkpt>
      <trkpt lat="45.26267" lon="6.46316">
        <ele>1461.595942151</ele>
        <time>2021-03-13T16:08:58.419Z</time>
      </trkpt>
      <trkpt lat="45.26256" lon="6.46305">
        <ele>1458.6825762891</ele>
        <time>2021-03-13T16:09:02.106Z</time>
      </trkpt>
      <trkpt lat="45.26243" lon="6.463">
        <ele>1455.6160759635</ele>
        <time>2021-03-13T16:09:05.798Z</time>
      </trkpt>
      <trkpt lat="45.2624" lon="6.46289">
        <ele>1452.4864485868</ele>
        <time>2021-03-13T16:09:09.493Z</time>
      </trkpt>
      <trkpt lat="45.26182" lon="6.46266">
        <ele>1448.5146590262</ele>
        <time>2021-03-13T16:09:13.208Z</time>
      </trkpt>
      <trkpt lat="45.26171" lon="6.46265">
        <ele>1444.9491812887</ele>
        <time>2021-03-13T16:09:16.926Z</time>
      </trkpt>
      <trkpt lat="45.26108" lon="6.46247">
        <ele>1440.6019990643</ele>
        <time>2021-03-13T16:09:20.666Z</time>
      </trkpt>
      <trkpt lat="45.26093" lon="6.4625">
        <ele>1436.7999008415</ele>
        <time>2021-03-13T16:09:24.411Z</time>
      </trkpt>
      <trkpt lat="45.26059" lon="6.46253">
        <ele>1432.7914787976</ele>
        <time>2021-03-13T16:09:28.167Z</time>
      </trkpt>
      <trkpt lat="45.26025" lon="6.46239">
        <ele>1428.759810093</ele>
        <time>2021-03-13T16:09:31.935Z</time>
      </trkpt>
      <trkpt lat="45.25999" lon="6.46212">
        <ele>1424.7552457797</ele>
        <time>2021-03-13T16:09:35.713Z</time>
      </trkpt>
      <trkpt lat="45.25987" lon="6.46206">
        <ele>1420.7815581773</ele>
        <time>2021-03-13T16:09:39.496Z</time>
      </trkpt>
      <trkpt lat="45.25981" lon="6.46218">
        <ele>1416.8435646207</ele>
        <time>2021-03-13T16:09:43.282Z</time>
      </trkpt>
      <trkpt lat="45.25973" lon="6.46212">
        <ele>1412.8108983739</ele>
        <time>2021-03-13T16:09:47.071Z</time>
      </trkpt>
      <trkpt lat="45.25954" lon="6.46197">
        <ele>1408.6286690204</ele>
        <time>2021-03-13T16:09:50.867Z</time>
      </trkpt>
      <trkpt lat="45.25948" lon="6.46184">
        <ele>1404.4983840199</ele>
        <time>2021-03-13T16:09:54.667Z</time>
      </trkpt>
      <trkpt lat="45.25947" lon="6.4614">
        <ele>1400.2326011236</ele>
        <time>2021-03-13T16:09:58.477Z</time>
      </trkpt>
      <trkpt lat="45.25929" lon="6.46122">
        <ele>1395.9104724537</ele>
        <time>2021-03-13T16:10:02.295Z</time>
      </trkpt>
      <trkpt lat="45.25896" lon="6.461">
        <ele>1391.2954355856</ele>
        <time>2021-03-13T16:10:06.125Z</time>
      </trkpt>
      <trkpt lat="45.25869" lon="6.46088">
        <ele>1386.9448616224</ele>
        <time>2021-03-13T16:10:09.964Z</time>
      </trkpt>
      <trkpt lat="45.2586" lon="6.46088">
        <ele>1382.9117333545</ele>
        <time>2021-03-13T16:10:13.806Z</time>
      </trkpt>
      <trkpt lat="45.25834" lon="6.46077">
        <ele>1378.6715920634</ele>
        <time>2021-03-13T16:10:17.657Z</time>
      </trkpt>
      <trkpt lat="45.25823" lon="6.46074">
        <ele>1374.7274779322</ele>
        <time>2021-03-13T16:10:21.512Z</time>
      </trkpt>
      <trkpt lat="45.25813" lon="6.46074">
        <ele>1370.8725025406</ele>
        <time>2021-03-13T16:10:25.371Z</time>
      </trkpt>
      <trkpt lat="45.25796" lon="6.46078">
        <ele>1367.025695376</ele>
        <time>2021-03-13T16:10:29.235Z</time>
      </trkpt>
      <trkpt lat="45.25774" lon="6.46078">
        <ele>1363.262223301</ele>
        <time>2021-03-13T16:10:33.107Z</time>
      </trkpt>
      <trkpt lat="45.25763" lon="6.46071">
        <ele>1359.6195248271</ele>
        <time>2021-03-13T16:10:36.982Z</time>
      </trkpt>
      <trkpt lat="45.25753" lon="6.46069">
        <ele>1356.0399536498</ele>
        <time>2021-03-13T16:10:40.861Z</time>
      </trkpt>
      <trkpt lat="45.25738" lon="6.46068">
        <ele>1352.4876696262</ele>
        <time>2021-03-13T16:10:44.745Z</time>
      </trkpt>
      <trkpt lat="45.25738" lon="6.46068">
        <ele>1349.1229469893</ele>
        <time>2021-03-13T16:10:48.629Z</time>
      </trkpt>
      <trkpt lat="45.25725" lon="6.46074">
        <ele>1345.7118413022</ele>
        <time>2021-03-13T16:10:52.518Z</time>
      </trkpt>
      <trkpt lat="45.2571" lon="6.46075">
        <ele>1342.3481742318</ele>
        <time>2021-03-13T16:10:56.412Z</time>
      </trkpt>
      <trkpt lat="45.257" lon="6.46071">
        <ele>1339.1030643579</ele>
        <time>2021-03-13T16:11:00.309Z</time>
      </trkpt>
      <trkpt lat="45.25686" lon="6.46071">
        <ele>1335.8677650922</ele>
        <time>2021-03-13T16:11:04.211Z</time>
      </trkpt>
      <trkpt lat="45.25661" lon="6.46066">
        <ele>1332.6588147222</ele>
        <time>2021-03-13T16:11:08.121Z</time>
      </trkpt>
      <trkpt lat="45.25642" lon="6.46071">
        <ele>1329.55500569</ele>
        <time>2021-03-13T16:11:12.038Z</time>
      </trkpt>
      <trkpt lat="45.25559" lon="6.46065">
        <ele>1325.7744962906</ele>
        <time>2021-03-13T16:11:15.982Z</time>
      </trkpt>
      <trkpt lat="45.25541" lon="6.46068">
        <ele>1322.7761814192</ele>
        <time>2021-03-13T16:11:19.932Z</time>
      </trkpt>
      <trkpt lat="45.25524" lon="6.46067">
        <ele>1319.871212079</ele>
        <time>2021-03-13T16:11:23.888Z</time>
      </trkpt>
      <trkpt lat="45.25498" lon="6.46059">
        <ele>1316.942527633</ele>
        <time>2021-03-13T16:11:27.853Z</time>
      </trkpt>
      <trkpt lat="45.25498" lon="6.46067">
        <ele>1314.4795581823</ele>
        <time>2021-03-13T16:11:31.819Z</time>
      </trkpt>
      <trkpt lat="45.25498" lon="6.46081">
        <ele>1312.128116518</ele>
        <time>2021-03-13T16:11:35.789Z</time>
      </trkpt>
      <trkpt lat="45.25488" lon="6.46116">
        <ele>1309.7333316311</ele>
        <time>2021-03-13T16:11:39.768Z</time>
      </trkpt>
      <trkpt lat="45.25487" lon="6.46131">
        <ele>1307.5862388942</ele>
        <time>2021-03-13T16:11:43.750Z</time>
      </trkpt>
      <trkpt lat="45.25485" lon="6.46138">
        <ele>1305.5288011218</ele>
        <time>2021-03-13T16:11:47.734Z</time>
      </trkpt>
      <trkpt lat="45.25465" lon="6.46154">
        <ele>1303.4529693867</ele>
        <time>2021-03-13T16:11:51.726Z</time>
      </trkpt>
      <trkpt lat="45.25458" lon="6.46163">
        <ele>1301.5613136136</ele>
        <time>2021-03-13T16:11:55.721Z</time>
      </trkpt>
      <trkpt lat="45.25446" lon="6.4619">
        <ele>1299.6694236988</ele>
        <time>2021-03-13T16:11:59.723Z</time>
      </trkpt>
      <trkpt lat="45.25446" lon="6.4619">
        <ele>1297.9582068174</ele>
        <time>2021-03-13T16:12:03.725Z</time>
      </trkpt>
      <trkpt lat="45.25443" lon="6.46194">
        <ele>1296.2744295484</ele>
        <time>2021-03-13T16:12:07.729Z</time>
      </trkpt>
      <trkpt lat="45.25433" lon="6.46213">
        <ele>1294.602568934</ele>
        <time>2021-03-13T16:12:11.738Z</time>
      </trkpt>
      <trkpt lat="45.25424" lon="6.46222">
        <ele>1292.9559990804</ele>
        <time>2021-03-13T16:12:15.751Z</time>
      </trkpt>
      <trkpt lat="45.25396" lon="6.46246">
        <ele>1291.1808990797</ele>
        <time>2021-03-13T16:12:19.775Z</time>
      </trkpt>
      <trkpt lat="45.25366" lon="6.46276">
        <ele>1289.499235536</ele>
        <time>2021-03-13T16:12:23.811Z</time>
      </trkpt>
      <trkpt lat="45.25346" lon="6.46287">
        <ele>1287.9176145217</ele>
        <time>2021-03-13T16:12:27.854Z</time>
      </trkpt>
      <trkpt lat="45.25323" lon="6.46295">
        <ele>1286.352279272</ele>
        <time>2021-03-13T16:12:31.905Z</time>
      </trkpt>
      <trkpt lat="45.25306" lon="6.46305">
        <ele>1284.8503490973</ele>
        <time>2021-03-13T16:12:35.962Z</time>
      </trkpt>
      <trkpt lat="45.25303" lon="6.46313">
        <ele>1283.3947656288</ele>
        <time>2021-03-13T16:12:40.021Z</time>
      </trkpt>
      <trkpt lat="45.25295" lon="6.46338">
        <ele>1281.9938297977</ele>
        <time>2021-03-13T16:12:44.087Z</time>
      </trkpt>
      <trkpt lat="45.25281" lon="6.46357">
        <ele>1280.4764966025</ele>
        <time>2021-03-13T16:12:48.159Z</time>
      </trkpt>
      <trkpt lat="45.2521" lon="6.4639">
        <ele>1278.4590482834</ele>
        <time>2021-03-13T16:12:52.256Z</time>
      </trkpt>
      <trkpt lat="45.2521" lon="6.4639">
        <ele>1276.876125428</ele>
        <time>2021-03-13T16:12:56.353Z</time>
      </trkpt>
      <trkpt lat="45.25201" lon="6.46391">
        <ele>1275.2466568816</ele>
        <time>2021-03-13T16:13:00.453Z</time>
      </trkpt>
      <trkpt lat="45.25162" lon="6.46386">
        <ele>1273.4160905931</ele>
        <time>2021-03-13T16:13:04.566Z</time>
      </trkpt>
      <trkpt lat="45.25129" lon="6.46373">
        <ele>1271.472244786</ele>
        <time>2021-03-13T16:13:08.691Z</time>
      </trkpt>
      <trkpt lat="45.2512" lon="6.46373">
        <ele>1269.6570059537</ele>
        <time>2021-03-13T16:13:12.819Z</time>
      </trkpt>
      <trkpt lat="45.25101" lon="6.46386">
        <ele>1267.825124645</ele>
        <time>2021-03-13T16:13:16.954Z</time>
      </trkpt>
      <trkpt lat="45.2509" lon="6.4638">
        <ele>1265.8603086336</ele>
        <time>2021-03-13T16:13:21.093Z</time>
      </trkpt>
      <trkpt lat="45.2508" lon="6.46365">
        <ele>1263.7853221558</ele>
        <time>2021-03-13T16:13:25.237Z</time>
      </trkpt>
      <trkpt lat="45.25069" lon="6.46359">
        <ele>1261.7173557582</ele>
        <time>2021-03-13T16:13:29.384Z</time>
      </trkpt>
      <trkpt lat="45.25052" lon="6.46357">
        <ele>1259.6010365932</ele>
        <time>2021-03-13T16:13:33.537Z</time>
      </trkpt>
      <trkpt lat="45.25043" lon="6.46352">
        <ele>1257.4718445173</ele>
        <time>2021-03-13T16:13:37.693Z</time>
      </trkpt>
      <trkpt lat="45.25033" lon="6.46339">
        <ele>1255.2550364259</ele>
        <time>2021-03-13T16:13:41.854Z</time>
      </trkpt>
      <trkpt lat="45.25023" lon="6.46318">
        <ele>1252.9420756755</ele>
        <time>2021-03-13T16:13:46.021Z</time>
      </trkpt>
      <trkpt lat="45.2502" lon="6.46295">
        <ele>1250.5634633976</ele>
        <time>2021-03-13T16:13:50.193Z</time>
      </trkpt>
      <trkpt lat="45.25002" lon="6.46266">
        <ele>1248.114148111</ele>
        <time>2021-03-13T16:13:54.374Z</time>
      </trkpt>
      <trkpt lat="45.24946" lon="6.46245">
        <ele>1245.6912606302</ele>
        <time>2021-03-13T16:13:58.575Z</time>
      </trkpt>
      <trkpt lat="45.24905" lon="6.46255">
        <ele>1238.6163177761</ele>
        <time>2021-03-13T16:14:02.790Z</time>
      </trkpt>
      <trkpt lat="45.24875" lon="6.46245">
        <ele>1236.2204883124</ele>
        <time>2021-03-13T16:14:07.015Z</time>
      </trkpt>
      <trkpt lat="45.2476" lon="6.46138">
        <ele>1233.3238298571</ele>
        <time>2021-03-13T16:14:11.286Z</time>
      </trkpt>
      <trkpt lat="45.24655" lon="6.46074">
        <ele>1230.2982029372</ele>
        <time>2021-03-13T16:14:15.595Z</time>
      </trkpt>
      <trkpt lat="45.24593" lon="6.46058">
        <ele>1227.5724826864</ele>
        <time>2021-03-13T16:14:19.925Z</time>
      </trkpt>
      <trkpt lat="45.24549" lon="6.46029">
        <ele>1224.9192902863</ele>
        <time>2021-03-13T16:14:24.271Z</time>
      </trkpt>
      <trkpt lat="45.24524" lon="6.4603">
        <ele>1222.8918727946</ele>
        <time>2021-03-13T16:14:28.625Z</time>
      </trkpt>
      <trkpt lat="45.24539" lon="6.4605">
        <ele>1221.105108254</ele>
        <time>2021-03-13T16:14:32.986Z</time>
      </trkpt>
      <trkpt lat="45.24552" lon="6.46089">
        <ele>1219.4728858905</ele>
        <time>2021-03-13T16:14:37.357Z</time>
      </trkpt>
      <trkpt lat="45.24571" lon="6.46155">
        <ele>1218.038514165</ele>
        <time>2021-03-13T16:14:41.745Z</time>
      </trkpt>
      <trkpt lat="45.24585" lon="6.46225">
        <ele>1216.2869587155</ele>
        <time>2021-03-13T16:14:46.150Z</time>
      </trkpt>
      <trkpt lat="45.246" lon="6.46268">
        <ele>1214.6281587321</ele>
        <time>2021-03-13T16:14:50.566Z</time>
      </trkpt>
      <trkpt lat="45.24602" lon="6.46294">
        <ele>1213.0311834049</ele>
        <time>2021-03-13T16:14:54.989Z</time>
      </trkpt>
      <trkpt lat="45.2458" lon="6.46324">
        <ele>1211.3624464924</ele>
        <time>2021-03-13T16:14:59.422Z</time>
      </trkpt>
      <trkpt lat="45.24568" lon="6.46324">
        <ele>1209.7152820464</ele>
        <time>2021-03-13T16:15:03.859Z</time>
      </trkpt>
      <trkpt lat="45.24559" lon="6.46315">
        <ele>1208.029014211</ele>
        <time>2021-03-13T16:15:08.300Z</time>
      </trkpt>
      <trkpt lat="45.24551" lon="6.46299">
        <ele>1206.3020646314</ele>
        <time>2021-03-13T16:15:12.745Z</time>
      </trkpt>
      <trkpt lat="45.2454" lon="6.46295">
        <ele>1204.5966336062</ele>
        <time>2021-03-13T16:15:17.194Z</time>
      </trkpt>
      <trkpt lat="45.24508" lon="6.46291">
        <ele>1202.8168169918</ele>
        <time>2021-03-13T16:15:21.654Z</time>
      </trkpt>
      <trkpt lat="45.24477" lon="6.46275">
        <ele>1200.8105276075</ele>
        <time>2021-03-13T16:15:26.125Z</time>
      </trkpt>
      <trkpt lat="45.24456" lon="6.46273">
        <ele>1198.8121456263</ele>
        <time>2021-03-13T16:15:30.603Z</time>
      </trkpt>
      <trkpt lat="45.24445" lon="6.46279">
        <ele>1196.8598289402</ele>
        <time>2021-03-13T16:15:35.085Z</time>
      </trkpt>
      <trkpt lat="45.2443" lon="6.46332">
        <ele>1195.0582959749</ele>
        <time>2021-03-13T16:15:39.580Z</time>
      </trkpt>
      <trkpt lat="45.24397" lon="6.46365">
        <ele>1192.7714367044</ele>
        <time>2021-03-13T16:15:44.089Z</time>
      </trkpt>
      <trkpt lat="45.2439" lon="6.46381">
        <ele>1190.576437069</ele>
        <time>2021-03-13T16:15:48.602Z</time>
      </trkpt>
      <trkpt lat="45.24383" lon="6.46413">
        <ele>1188.2533495067</ele>
        <time>2021-03-13T16:15:53.123Z</time>
      </trkpt>
      <trkpt lat="45.24395" lon="6.46466">
        <ele>1186.066979838</ele>
        <time>2021-03-13T16:15:57.657Z</time>
      </trkpt>
      <trkpt lat="45.24406" lon="6.465">
        <ele>1183.7745370774</ele>
        <time>2021-03-13T16:16:02.200Z</time>
      </trkpt>
      <trkpt lat="45.24398" lon="6.46501">
        <ele>1181.3055497273</ele>
        <time>2021-03-13T16:16:06.745Z</time>
      </trkpt>
      <trkpt lat="45.24384" lon="6.46466">
        <ele>1178.8102804656</ele>
        <time>2021-03-13T16:16:11.300Z</time>
      </trkpt>
      <trkpt lat="45.24373" lon="6.46451">
        <ele>1176.1351165115</ele>
        <time>2021-03-13T16:16:15.860Z</time>
      </trkpt>
      <trkpt lat="45.24356" lon="6.46437">
        <ele>1173.3096507787</ele>
        <time>2021-03-13T16:16:20.427Z</time>
      </trkpt>
      <trkpt lat="45.24293" lon="6.46409">
        <ele>1170.1143063544</ele>
        <time>2021-03-13T16:16:25.016Z</time>
      </trkpt>
      <trkpt lat="45.2425" lon="6.46435">
        <ele>1166.9467277062</ele>
        <time>2021-03-13T16:16:29.620Z</time>
      </trkpt>
      <trkpt lat="45.24247" lon="6.46437">
        <ele>1164.0719138576</ele>
        <time>2021-03-13T16:16:34.225Z</time>
      </trkpt>
      <trkpt lat="45.24232" lon="6.46465">
        <ele>1160.99146198</ele>
        <time>2021-03-13T16:16:38.839Z</time>
      </trkpt>
      <trkpt lat="45.24227" lon="6.4647">
        <ele>1157.9845627108</ele>
        <time>2021-03-13T16:16:43.455Z</time>
      </trkpt>
      <trkpt lat="45.2421" lon="6.4648">
        <ele>1154.8433413555</ele>
        <time>2021-03-13T16:16:48.077Z</time>
      </trkpt>
      <trkpt lat="45.24197" lon="6.46485">
        <ele>1151.7055345457</ele>
        <time>2021-03-13T16:16:52.703Z</time>
      </trkpt>
      <trkpt lat="45.24192" lon="6.46489">
        <ele>1148.5923026128</ele>
        <time>2021-03-13T16:16:57.331Z</time>
      </trkpt>
      <trkpt lat="45.24187" lon="6.46498">
        <ele>1145.4196145621</ele>
        <time>2021-03-13T16:17:01.962Z</time>
      </trkpt>
      <trkpt lat="45.24185" lon="6.46499">
        <ele>1142.2986392282</ele>
        <time>2021-03-13T16:17:06.594Z</time>
      </trkpt>
      <trkpt lat="45.24182" lon="6.46508">
        <ele>1139.1116282359</ele>
        <time>2021-03-13T16:17:11.228Z</time>
      </trkpt>
      <trkpt lat="45.24156" lon="6.46529">
        <ele>1135.54507201</ele>
        <time>2021-03-13T16:17:15.872Z</time>
      </trkpt>
      <trkpt lat="45.24131" lon="6.46543">
        <ele>1132.0979166085</ele>
        <time>2021-03-13T16:17:20.525Z</time>
      </trkpt>
      <trkpt lat="45.241" lon="6.46552">
        <ele>1128.6361438096</ele>
        <time>2021-03-13T16:17:25.188Z</time>
      </trkpt>
      <trkpt lat="45.24095" lon="6.46556">
        <ele>1125.5293100988</ele>
        <time>2021-03-13T16:17:29.853Z</time>
      </trkpt>
      <trkpt lat="45.24092" lon="6.46562">
        <ele>1122.492860378</ele>
        <time>2021-03-13T16:17:34.520Z</time>
      </trkpt>
      <trkpt lat="45.24083" lon="6.4657">
        <ele>1119.418676417</ele>
        <time>2021-03-13T16:17:39.191Z</time>
      </trkpt>
      <trkpt lat="45.24073" lon="6.46575">
        <ele>1116.3947924747</ele>
        <time>2021-03-13T16:17:43.865Z</time>
      </trkpt>
      <trkpt lat="45.2407" lon="6.4658">
        <ele>1113.5245103191</ele>
        <time>2021-03-13T16:17:48.541Z</time>
      </trkpt>
      <trkpt lat="45.24063" lon="6.46595">
        <ele>1110.6103308001</ele>
        <time>2021-03-13T16:17:53.221Z</time>
      </trkpt>
      <trkpt lat="45.24055" lon="6.46607">
        <ele>1107.7502927078</ele>
        <time>2021-03-13T16:17:57.905Z</time>
      </trkpt>
      <trkpt lat="45.24049" lon="6.46627">
        <ele>1104.9708517273</ele>
        <time>2021-03-13T16:18:02.594Z</time>
      </trkpt>
      <trkpt lat="45.24044" lon="6.46631">
        <ele>1102.36662061</ele>
        <time>2021-03-13T16:18:07.285Z</time>
      </trkpt>
      <trkpt lat="45.24039" lon="6.46631">
        <ele>1099.8363925417</ele>
        <time>2021-03-13T16:18:11.977Z</time>
      </trkpt>
      <trkpt lat="45.24037" lon="6.46633">
        <ele>1097.4107050308</ele>
        <time>2021-03-13T16:18:16.670Z</time>
      </trkpt>
      <trkpt lat="45.24037" lon="6.46639">
        <ele>1095.0730147214</ele>
        <time>2021-03-13T16:18:21.365Z</time>
      </trkpt>
      <trkpt lat="45.24035" lon="6.46641">
        <ele>1092.7907515092</ele>
        <time>2021-03-13T16:18:26.060Z</time>
      </trkpt>
      <trkpt lat="45.24027" lon="6.4664">
        <ele>1090.492714583</ele>
        <time>2021-03-13T16:18:30.758Z</time>
      </trkpt>
      <trkpt lat="45.24014" lon="6.46632">
        <ele>1088.2146303917</ele>
        <time>2021-03-13T16:18:35.461Z</time>
      </trkpt>
      <trkpt lat="45.24001" lon="6.46633">
        <ele>1085.9854932797</ele>
        <time>2021-03-13T16:18:40.168Z</time>
      </trkpt>
      <trkpt lat="45.23985" lon="6.46623">
        <ele>1083.8635011843</ele>
        <time>2021-03-13T16:18:44.881Z</time>
      </trkpt>
      <trkpt lat="45.23976" lon="6.46623">
        <ele>1081.8360596706</ele>
        <time>2021-03-13T16:18:49.597Z</time>
      </trkpt>
      <trkpt lat="45.23952" lon="6.46615">
        <ele>1079.7592411664</ele>
        <time>2021-03-13T16:18:54.321Z</time>
      </trkpt>
      <trkpt lat="45.23945" lon="6.46617">
        <ele>1077.8167577859</ele>
        <time>2021-03-13T16:18:59.048Z</time>
      </trkpt>
      <trkpt lat="45.23932" lon="6.46628">
        <ele>1075.7710360832</ele>
        <time>2021-03-13T16:19:03.780Z</time>
      </trkpt>
      <trkpt lat="45.23922" lon="6.46632">
        <ele>1073.8796015129</ele>
        <time>2021-03-13T16:19:08.515Z</time>
      </trkpt>
      <trkpt lat="45.23897" lon="6.46633">
        <ele>1071.857248554</ele>
        <time>2021-03-13T16:19:13.258Z</time>
      </trkpt>
      <trkpt lat="45.23881" lon="6.46639">
        <ele>1069.9002182588</ele>
        <time>2021-03-13T16:19:18.007Z</time>
      </trkpt>
      <trkpt lat="45.23873" lon="6.46647">
        <ele>1068.1974344284</ele>
        <time>2021-03-13T16:19:22.759Z</time>
      </trkpt>
      <trkpt lat="45.23873" lon="6.46651">
        <ele>1066.6754188033</ele>
        <time>2021-03-13T16:19:27.512Z</time>
      </trkpt>
      <trkpt lat="45.23885" lon="6.46649">
        <ele>1065.3602149376</ele>
        <time>2021-03-13T16:19:32.269Z</time>
      </trkpt>
      <trkpt lat="45.23888" lon="6.46655">
        <ele>1063.9596582547</ele>
        <time>2021-03-13T16:19:37.028Z</time>
      </trkpt>
      <trkpt lat="45.23882" lon="6.46657">
        <ele>1062.5045353963</ele>
        <time>2021-03-13T16:19:41.788Z</time>
      </trkpt>
      <trkpt lat="45.23882" lon="6.46659">
        <ele>1061.1457300721</ele>
        <time>2021-03-13T16:19:46.549Z</time>
      </trkpt>
      <trkpt lat="45.23895" lon="6.46666">
        <ele>1059.9388665933</ele>
        <time>2021-03-13T16:19:51.315Z</time>
      </trkpt>
      <trkpt lat="45.23896" lon="6.46667">
        <ele>1058.629391022</ele>
        <time>2021-03-13T16:19:56.081Z</time>
      </trkpt>
      <trkpt lat="45.23894" lon="6.46669">
        <ele>1057.2753722749</ele>
        <time>2021-03-13T16:20:00.848Z</time>
      </trkpt>
      <trkpt lat="45.2387" lon="6.46673">
        <ele>1055.6986722967</ele>
        <time>2021-03-13T16:20:05.623Z</time>
      </trkpt>
      <trkpt lat="45.23858" lon="6.4668">
        <ele>1054.2372790066</ele>
        <time>2021-03-13T16:20:10.402Z</time>
      </trkpt>
      <trkpt lat="45.23858" lon="6.46687">
        <ele>1052.8503889186</ele>
        <time>2021-03-13T16:20:15.183Z</time>
      </trkpt>
      <trkpt lat="45.23855" lon="6.46691">
        <ele>1051.3837885289</ele>
        <time>2021-03-13T16:20:19.966Z</time>
      </trkpt>
      <trkpt lat="45.23843" lon="6.46695">
        <ele>1049.7848587774</ele>
        <time>2021-03-13T16:20:24.753Z</time>
      </trkpt>
      <trkpt lat="45.23834" lon="6.46701">
        <ele>1048.2329555667</ele>
        <time>2021-03-13T16:20:29.543Z</time>
      </trkpt>
      <trkpt lat="45.23827" lon="6.4671">
        <ele>1046.60871725</ele>
        <time>2021-03-13T16:20:34.336Z</time>
      </trkpt>
      <trkpt lat="45.23788" lon="6.467">
        <ele>1044.5673040666</ele>
        <time>2021-03-13T16:20:39.142Z</time>
      </trkpt>
      <trkpt lat="45.23755" lon="6.46697">
        <ele>1042.6870228618</ele>
        <time>2021-03-13T16:20:43.959Z</time>
      </trkpt>
      <trkpt lat="45.23748" lon="6.46693">
        <ele>1040.9132269467</ele>
        <time>2021-03-13T16:20:48.779Z</time>
      </trkpt>
      <trkpt lat="45.23741" lon="6.46686">
        <ele>1039.0911685045</ele>
        <time>2021-03-13T16:20:53.602Z</time>
      </trkpt>
      <trkpt lat="45.23725" lon="6.46675">
        <ele>1037.1692497115</ele>
        <time>2021-03-13T16:20:58.431Z</time>
      </trkpt>
      <trkpt lat="45.23713" lon="6.46656">
        <ele>1035.185895858</ele>
        <time>2021-03-13T16:21:03.266Z</time>
      </trkpt>
      <trkpt lat="45.237" lon="6.46644">
        <ele>1033.1252357771</ele>
        <time>2021-03-13T16:21:08.106Z</time>
      </trkpt>
      <trkpt lat="45.23697" lon="6.46643">
        <ele>1031.1575613146</ele>
        <time>2021-03-13T16:21:12.947Z</time>
      </trkpt>
      <trkpt lat="45.23692" lon="6.46639">
        <ele>1029.1295798753</ele>
        <time>2021-03-13T16:21:17.790Z</time>
      </trkpt>
      <trkpt lat="45.23679" lon="6.46633">
        <ele>1026.9138698422</ele>
        <time>2021-03-13T16:21:22.637Z</time>
      </trkpt>
      <trkpt lat="45.23673" lon="6.46627">
        <ele>1024.7589310423</ele>
        <time>2021-03-13T16:21:27.487Z</time>
      </trkpt>
      <trkpt lat="45.23665" lon="6.46622">
        <ele>1022.5331997716</ele>
        <time>2021-03-13T16:21:32.340Z</time>
      </trkpt>
      <trkpt lat="45.23665" lon="6.46622">
        <ele>1020.441415807</ele>
        <time>2021-03-13T16:21:37.193Z</time>
      </trkpt>
      <trkpt lat="45.23659" lon="6.46621">
        <ele>1018.2375115448</ele>
        <time>2021-03-13T16:21:42.048Z</time>
      </trkpt>
      <trkpt lat="45.23621" lon="6.46627">
        <ele>1015.6067225033</ele>
        <time>2021-03-13T16:21:46.916Z</time>
      </trkpt>
      <trkpt lat="45.23607" lon="6.46625">
        <ele>1013.2814217112</ele>
        <time>2021-03-13T16:21:51.788Z</time>
      </trkpt>
      <trkpt lat="45.23592" lon="6.4664">
        <ele>1011.094461579</ele>
        <time>2021-03-13T16:21:56.666Z</time>
      </trkpt>
      <trkpt lat="45.23566" lon="6.46655">
        <ele>1008.8939690109</ele>
        <time>2021-03-13T16:22:01.554Z</time>
      </trkpt>
      <trkpt lat="45.23563" lon="6.46655">
        <ele>1006.6804014819</ele>
        <time>2021-03-13T16:22:06.443Z</time>
      </trkpt>
      <trkpt lat="45.23555" lon="6.46662">
        <ele>1004.477436884</ele>
        <time>2021-03-13T16:22:11.335Z</time>
      </trkpt>
      <trkpt lat="45.23547" lon="6.46665">
        <ele>1002.1935964241</ele>
        <time>2021-03-13T16:22:16.230Z</time>
      </trkpt>
      <trkpt lat="45.23544" lon="6.46677">
        <ele>1000.0008391233</ele>
        <time>2021-03-13T16:22:21.128Z</time>
      </trkpt>
      <trkpt lat="45.23542" lon="6.46681">
        <ele>997.72594761732</ele>
        <time>2021-03-13T16:22:26.027Z</time>
      </trkpt>
      <trkpt lat="45.23527" lon="6.46675">
        <ele>995.23197241721</ele>
        <time>2021-03-13T16:22:30.931Z</time>
      </trkpt>
      <trkpt lat="45.23483" lon="6.46668">
        <ele>992.43459525395</ele>
        <time>2021-03-13T16:22:35.850Z</time>
      </trkpt>
      <trkpt lat="45.23462" lon="6.46654">
        <ele>989.89155193231</ele>
        <time>2021-03-13T16:22:40.777Z</time>
      </trkpt>
      <trkpt lat="45.23456" lon="6.46648">
        <ele>987.49851938682</ele>
        <time>2021-03-13T16:22:45.706Z</time>
      </trkpt>
      <trkpt lat="45.23451" lon="6.46646">
        <ele>985.09956151037</ele>
        <time>2021-03-13T16:22:50.637Z</time>
      </trkpt>
      <trkpt lat="45.23444" lon="6.46656">
        <ele>982.66923021703</ele>
        <time>2021-03-13T16:22:55.571Z</time>
      </trkpt>
      <trkpt lat="45.23441" lon="6.46661">
        <ele>980.27737985827</ele>
        <time>2021-03-13T16:23:00.507Z</time>
      </trkpt>
      <trkpt lat="45.23421" lon="6.46634">
        <ele>977.58162808811</ele>
        <time>2021-03-13T16:23:05.452Z</time>
      </trkpt>
      <trkpt lat="45.2341" lon="6.46632">
        <ele>975.01737983319</ele>
        <time>2021-03-13T16:23:10.401Z</time>
      </trkpt>
      <trkpt lat="45.2341" lon="6.46632">
        <ele>972.63217881116</ele>
        <time>2021-03-13T16:23:15.350Z</time>
      </trkpt>
      <trkpt lat="45.23399" lon="6.4663">
        <ele>970.06530689286</ele>
        <time>2021-03-13T16:23:20.302Z</time>
      </trkpt>
      <trkpt lat="45.23393" lon="6.46631">
        <ele>967.59553279683</ele>
        <time>2021-03-13T16:23:25.256Z</time>
      </trkpt>
      <trkpt lat="45.23385" lon="6.46629">
        <ele>965.05494129185</ele>
        <time>2021-03-13T16:23:30.213Z</time>
      </trkpt>
      <trkpt lat="45.23378" lon="6.46624">
        <ele>962.53293257399</ele>
        <time>2021-03-13T16:23:35.173Z</time>
      </trkpt>
      <trkpt lat="45.23373" lon="6.46617">
        <ele>960.02325526113</ele>
        <time>2021-03-13T16:23:40.135Z</time>
      </trkpt>
      <trkpt lat="45.23367" lon="6.46604">
        <ele>957.46541709338</ele>
        <time>2021-03-13T16:23:45.100Z</time>
      </trkpt>
      <trkpt lat="45.23344" lon="6.46585">
        <ele>954.66366008439</ele>
        <time>2021-03-13T16:23:50.075Z</time>
      </trkpt>
      <trkpt lat="45.2333" lon="6.46587">
        <ele>952.18125359105</ele>
        <time>2021-03-13T16:23:55.054Z</time>
      </trkpt>
      <trkpt lat="45.23315" lon="6.46582">
        <ele>949.64554691421</ele>
        <time>2021-03-13T16:24:00.038Z</time>
      </trkpt>
      <trkpt lat="45.23301" lon="6.46567">
        <ele>947.04707914896</ele>
        <time>2021-03-13T16:24:05.028Z</time>
      </trkpt>
      <trkpt lat="45.23298" lon="6.46566">
        <ele>944.63869313719</ele>
        <time>2021-03-13T16:24:10.019Z</time>
      </trkpt>
      <trkpt lat="45.23293" lon="6.46572">
        <ele>942.26195365648</ele>
        <time>2021-03-13T16:24:15.012Z</time>
      </trkpt>
      <trkpt lat="45.2329" lon="6.46573">
        <ele>939.84864759105</ele>
        <time>2021-03-13T16:24:20.007Z</time>
      </trkpt>
      <trkpt lat="45.23286" lon="6.46567">
        <ele>937.35446648501</ele>
        <time>2021-03-13T16:24:25.004Z</time>
      </trkpt>
      <trkpt lat="45.23284" lon="6.46567">
        <ele>934.91857505023</ele>
        <time>2021-03-13T16:24:30.001Z</time>
      </trkpt>
      <trkpt lat="45.23282" lon="6.46568">
        <ele>932.46193302709</ele>
        <time>2021-03-13T16:24:34.999Z</time>
      </trkpt>
      <trkpt lat="45.23275" lon="6.46565">
        <ele>929.89610911328</ele>
        <time>2021-03-13T16:24:39.999Z</time>
      </trkpt>
      <trkpt lat="45.23259" lon="6.46565">
        <ele>927.21664756686</ele>
        <time>2021-03-13T16:24:45.005Z</time>
      </trkpt>
      <trkpt lat="45.23235" lon="6.46542">
        <ele>924.35057265862</ele>
        <time>2021-03-13T16:24:50.020Z</time>
      </trkpt>
      <trkpt lat="45.23223" lon="6.46543">
        <ele>921.73851001982</ele>
        <time>2021-03-13T16:24:55.040Z</time>
      </trkpt>
      <trkpt lat="45.23205" lon="6.46555">
        <ele>919.07616231877</ele>
        <time>2021-03-13T16:25:00.066Z</time>
      </trkpt>
      <trkpt lat="45.23193" lon="6.46559">
        <ele>916.44585752968</ele>
        <time>2021-03-13T16:25:05.096Z</time>
      </trkpt>
      <trkpt lat="45.23176" lon="6.46569">
        <ele>913.71872418805</ele>
        <time>2021-03-13T16:25:10.132Z</time>
      </trkpt>
      <trkpt lat="45.23171" lon="6.4657">
        <ele>911.07638662307</ele>
        <time>2021-03-13T16:25:15.170Z</time>
      </trkpt>
      <trkpt lat="45.23158" lon="6.46562">
        <ele>908.3286480951</ele>
        <time>2021-03-13T16:25:20.213Z</time>
      </trkpt>
      <trkpt lat="45.23149" lon="6.46566">
        <ele>905.52668110425</ele>
        <time>2021-03-13T16:25:25.259Z</time>
      </trkpt>
      <trkpt lat="45.23125" lon="6.46567">
        <ele>902.49725502408</ele>
        <time>2021-03-13T16:25:30.313Z</time>
      </trkpt>
      <trkpt lat="45.23118" lon="6.46565">
        <ele>899.82500399318</ele>
        <time>2021-03-13T16:25:35.369Z</time>
      </trkpt>
      <trkpt lat="45.23098" lon="6.4657">
        <ele>896.96693390592</ele>
        <time>2021-03-13T16:25:40.432Z</time>
      </trkpt>
      <trkpt lat="45.23096" lon="6.46575">
        <ele>894.39769395455</ele>
        <time>2021-03-13T16:25:45.497Z</time>
      </trkpt>
      <trkpt lat="45.23077" lon="6.46583">
        <ele>891.59196791641</ele>
        <time>2021-03-13T16:25:50.568Z</time>
      </trkpt>
      <trkpt lat="45.2307" lon="6.46586">
        <ele>888.96035111452</ele>
        <time>2021-03-13T16:25:55.641Z</time>
      </trkpt>
      <trkpt lat="45.23048" lon="6.46587">
        <ele>886.06869932652</ele>
        <time>2021-03-13T16:26:00.722Z</time>
      </trkpt>
      <trkpt lat="45.23046" lon="6.46604">
        <ele>883.56451181777</ele>
        <time>2021-03-13T16:26:05.807Z</time>
      </trkpt>
      <trkpt lat="45.23044" lon="6.46617">
        <ele>881.05807227662</ele>
        <time>2021-03-13T16:26:10.895Z</time>
      </trkpt>
      <trkpt lat="45.23044" lon="6.46636">
        <ele>878.58762635501</ele>
        <time>2021-03-13T16:26:15.987Z</time>
      </trkpt>
      <trkpt lat="45.23035" lon="6.46624">
        <ele>875.79677390974</ele>
        <time>2021-03-13T16:26:21.084Z</time>
      </trkpt>
      <trkpt lat="45.23032" lon="6.46609">
        <ele>873.09118050948</ele>
        <time>2021-03-13T16:26:26.184Z</time>
      </trkpt>
      <trkpt lat="45.23027" lon="6.46573">
        <ele>870.41075576844</ele>
        <time>2021-03-13T16:26:31.293Z</time>
      </trkpt>
      <trkpt lat="45.23026" lon="6.46542">
        <ele>867.75663306869</ele>
        <time>2021-03-13T16:26:36.409Z</time>
      </trkpt>
      <trkpt lat="45.23025" lon="6.4654">
        <ele>864.98122722955</ele>
        <time>2021-03-13T16:26:41.526Z</time>
      </trkpt>
      <trkpt lat="45.23021" lon="6.46529">
        <ele>862.12122932866</ele>
        <time>2021-03-13T16:26:46.646Z</time>
      </trkpt>
      <trkpt lat="45.22997" lon="6.46539">
        <ele>859.00898130952</ele>
        <time>2021-03-13T16:26:51.774Z</time>
      </trkpt>
      <trkpt lat="45.22975" lon="6.46558">
        <ele>855.71582086943</ele>
        <time>2021-03-13T16:26:56.911Z</time>
      </trkpt>
      <trkpt lat="45.22969" lon="6.46566">
        <ele>852.53030404945</ele>
        <time>2021-03-13T16:27:02.050Z</time>
      </trkpt>
      <trkpt lat="45.22967" lon="6.46581">
        <ele>849.24895952657</ele>
        <time>2021-03-13T16:27:07.193Z</time>
      </trkpt>
      <trkpt lat="45.22976" lon="6.46609">
        <ele>845.9156997915</ele>
        <time>2021-03-13T16:27:12.343Z</time>
      </trkpt>
      <trkpt lat="45.22972" lon="6.46614">
        <ele>842.52613537424</ele>
        <time>2021-03-13T16:27:17.495Z</time>
      </trkpt>
      <trkpt lat="45.22945" lon="6.46612">
        <ele>838.80226345735</ele>
        <time>2021-03-13T16:27:22.656Z</time>
      </trkpt>
      <trkpt lat="45.22914" lon="6.46598">
        <ele>834.92599447816</ele>
        <time>2021-03-13T16:27:27.828Z</time>
      </trkpt>
      <trkpt lat="45.22881" lon="6.46571">
        <ele>831.12170042407</ele>
        <time>2021-03-13T16:27:33.012Z</time>
      </trkpt>
      <trkpt lat="45.22869" lon="6.46556">
        <ele>827.49722651616</ele>
        <time>2021-03-13T16:27:38.202Z</time>
      </trkpt>
      <trkpt lat="45.2286" lon="6.46556">
        <ele>823.99900404683</ele>
        <time>2021-03-13T16:27:43.395Z</time>
      </trkpt>
      <trkpt lat="45.22853" lon="6.46543">
        <ele>820.50255465637</ele>
        <time>2021-03-13T16:27:48.591Z</time>
      </trkpt>
      <trkpt lat="45.22832" lon="6.46524">
        <ele>816.73215244589</ele>
        <time>2021-03-13T16:27:53.796Z</time>
      </trkpt>
      <trkpt lat="45.22806" lon="6.46509">
        <ele>813.06996722707</ele>
        <time>2021-03-13T16:27:59.010Z</time>
      </trkpt>
      <trkpt lat="45.22785" lon="6.46491">
        <ele>809.55256596209</ele>
        <time>2021-03-13T16:28:04.232Z</time>
      </trkpt>
      <trkpt lat="45.22747" lon="6.46482">
        <ele>805.98221657278</ele>
        <time>2021-03-13T16:28:09.467Z</time>
      </trkpt>
      <trkpt lat="45.22743" lon="6.46499">
        <ele>803.17557588822</ele>
        <time>2021-03-13T16:28:14.706Z</time>
      </trkpt>
      <trkpt lat="45.22733" lon="6.46508">
        <ele>800.46284995558</ele>
        <time>2021-03-13T16:28:19.949Z</time>
      </trkpt>
      <trkpt lat="45.22715" lon="6.46512">
        <ele>797.69127311197</ele>
        <time>2021-03-13T16:28:25.198Z</time>
      </trkpt>
      <trkpt lat="45.22657" lon="6.4651">
        <ele>795.1153290205</ele>
        <time>2021-03-13T16:28:30.467Z</time>
      </trkpt>
      <trkpt lat="45.22621" lon="6.4652">
        <ele>792.82895387694</ele>
        <time>2021-03-13T16:28:35.748Z</time>
      </trkpt>
      <trkpt lat="45.22564" lon="6.4653">
        <ele>790.21407995939</ele>
        <time>2021-03-13T16:28:41.048Z</time>
      </trkpt>
      <trkpt lat="45.22543" lon="6.46549">
        <ele>788.17256853892</ele>
        <time>2021-03-13T16:28:46.356Z</time>
      </trkpt>
      <trkpt lat="45.2254" lon="6.46546">
        <ele>786.34725502732</ele>
        <time>2021-03-13T16:28:51.665Z</time>
      </trkpt>
      <trkpt lat="45.22539" lon="6.46538">
        <ele>784.64735275283</ele>
        <time>2021-03-13T16:28:56.976Z</time>
      </trkpt>
      <trkpt lat="45.22545" lon="6.46495">
        <ele>782.86317856518</ele>
        <time>2021-03-13T16:29:02.298Z</time>
      </trkpt>
      <trkpt lat="45.22518" lon="6.46499">
        <ele>781.65579074152</ele>
        <time>2021-03-13T16:29:07.629Z</time>
      </trkpt>
      <trkpt lat="45.22511" lon="6.46505">
        <ele>780.60734472101</ele>
        <time>2021-03-13T16:29:12.962Z</time>
      </trkpt>
      <trkpt lat="45.22511" lon="6.46505">
        <ele>779.69153449821</ele>
        <time>2021-03-13T16:29:18.295Z</time>
      </trkpt>
      <trkpt lat="45.22504" lon="6.4651">
        <ele>778.9570701103</ele>
        <time>2021-03-13T16:29:23.631Z</time>
      </trkpt>
      <trkpt lat="45.22473" lon="6.46544">
        <ele>778.1724930991</ele>
        <time>2021-03-13T16:29:28.980Z</time>
      </trkpt>
      <trkpt lat="45.22451" lon="6.46599">
        <ele>777.78039564485</ele>
        <time>2021-03-13T16:29:34.344Z</time>
      </trkpt>
      <trkpt lat="45.2244" lon="6.46603">
        <ele>777.29523011759</ele>
        <time>2021-03-13T16:29:39.712Z</time>
      </trkpt>
      <trkpt lat="45.22407" lon="6.46626">
        <ele>776.83019300735</ele>
        <time>2021-03-13T16:29:45.092Z</time>
      </trkpt>
      <trkpt lat="45.22387" lon="6.46646">
        <ele>776.76489930655</ele>
        <time>2021-03-13T16:29:50.480Z</time>
      </trkpt>
      <trkpt lat="45.22362" lon="6.46691">
        <ele>776.80156909478</ele>
        <time>2021-03-13T16:29:55.882Z</time>
      </trkpt>
      <trkpt lat="45.22349" lon="6.46727">
        <ele>777.017109508</ele>
        <time>2021-03-13T16:30:01.293Z</time>
      </trkpt>
      <trkpt lat="45.22334" lon="6.46788">
        <ele>777.63954425514</ele>
        <time>2021-03-13T16:30:06.719Z</time>
      </trkpt>
      <trkpt lat="45.22323" lon="6.46818">
        <ele>777.70622587626</ele>
        <time>2021-03-13T16:30:12.153Z</time>
      </trkpt>
      <trkpt lat="45.22312" lon="6.46839">
        <ele>777.64544577808</ele>
        <time>2021-03-13T16:30:17.594Z</time>
      </trkpt>
      <trkpt lat="45.22302" lon="6.46851">
        <ele>777.47146276549</ele>
        <time>2021-03-13T16:30:23.039Z</time>
      </trkpt>
      <trkpt lat="45.22275" lon="6.46862">
        <ele>777.0331258553</ele>
        <time>2021-03-13T16:30:28.493Z</time>
      </trkpt>
      <trkpt lat="45.22256" lon="6.46866">
        <ele>776.66441744803</ele>
        <time>2021-03-13T16:30:33.954Z</time>
      </trkpt>
      <trkpt lat="45.22242" lon="6.46874">
        <ele>776.44080033896</ele>
        <time>2021-03-13T16:30:39.420Z</time>
      </trkpt>
      <trkpt lat="45.22232" lon="6.46892">
        <ele>776.32335031957</ele>
        <time>2021-03-13T16:30:44.891Z</time>
      </trkpt>
      <trkpt lat="45.22212" lon="6.46914">
        <ele>775.9357553277</ele>
        <time>2021-03-13T16:30:50.371Z</time>
      </trkpt>
      <trkpt lat="45.22187" lon="6.46962">
        <ele>775.75442326319</ele>
        <time>2021-03-13T16:30:55.865Z</time>
      </trkpt>
      <trkpt lat="45.22156" lon="6.47011">
        <ele>775.31953582969</ele>
        <time>2021-03-13T16:31:01.374Z</time>
      </trkpt>
      <trkpt lat="45.22146" lon="6.4703">
        <ele>774.97878308705</ele>
        <time>2021-03-13T16:31:06.889Z</time>
      </trkpt>
      <trkpt lat="45.22137" lon="6.4707">
        <ele>774.71486172907</ele>
        <time>2021-03-13T16:31:12.414Z</time>
      </trkpt>
      <trkpt lat="45.22128" lon="6.471">
        <ele>774.14132451152</ele>
        <time>2021-03-13T16:31:17.946Z</time>
      </trkpt>
      <trkpt lat="45.22125" lon="6.47107">
        <ele>773.50959692249</ele>
        <time>2021-03-13T16:31:23.480Z</time>
      </trkpt>
      <trkpt lat="45.22108" lon="6.47126">
        <ele>772.64890160046</ele>
        <time>2021-03-13T16:31:29.021Z</time>
      </trkpt>
      <trkpt lat="45.22085" lon="6.47159">
        <ele>771.88465057745</ele>
        <time>2021-03-13T16:31:34.573Z</time>
      </trkpt>
      <trkpt lat="45.22068" lon="6.47175">
        <ele>771.06624048157</ele>
        <time>2021-03-13T16:31:40.132Z</time>
      </trkpt>
      <trkpt lat="45.22062" lon="6.47179">
        <ele>770.19639980149</ele>
        <time>2021-03-13T16:31:45.694Z</time>
      </trkpt>
      <trkpt lat="45.22035" lon="6.47192">
        <ele>769.07793860638</ele>
        <time>2021-03-13T16:31:51.265Z</time>
      </trkpt>
      <trkpt lat="45.22032" lon="6.47198">
        <ele>768.12351885524</ele>
        <time>2021-03-13T16:31:56.838Z</time>
      </trkpt>
      <trkpt lat="45.22025" lon="6.47218">
        <ele>767.06080963633</ele>
        <time>2021-03-13T16:32:02.416Z</time>
      </trkpt>
      <trkpt lat="45.22018" lon="6.47231">
        <ele>765.98389426813</ele>
        <time>2021-03-13T16:32:07.998Z</time>
      </trkpt>
      <trkpt lat="45.22022" lon="6.472">
        <ele>764.95138238604</ele>
        <time>2021-03-13T16:32:13.587Z</time>
      </trkpt>
      <trkpt lat="45.22017" lon="6.47202">
        <ele>763.74335036533</ele>
        <time>2021-03-13T16:32:19.178Z</time>
      </trkpt>
      <trkpt lat="45.22012" lon="6.47207">
        <ele>762.53186278645</ele>
        <time>2021-03-13T16:32:24.771Z</time>
      </trkpt>
      <trkpt lat="45.22005" lon="6.47216">
        <ele>761.29343081358</ele>
        <time>2021-03-13T16:32:30.367Z</time>
      </trkpt>
      <trkpt lat="45.21998" lon="6.4724">
        <ele>760.17371501802</ele>
        <time>2021-03-13T16:32:35.969Z</time>
      </trkpt>
      <trkpt lat="45.21989" lon="6.47255">
        <ele>758.9038577788</ele>
        <time>2021-03-13T16:32:41.576Z</time>
      </trkpt>
      <trkpt lat="45.21984" lon="6.47258">
        <ele>757.68834919339</ele>
        <time>2021-03-13T16:32:47.185Z</time>
      </trkpt>
      <trkpt lat="45.21984" lon="6.47258">
        <ele>756.53884534542</ele>
        <time>2021-03-13T16:32:52.794Z</time>
      </trkpt>
      <trkpt lat="45.21975" lon="6.47265">
        <ele>755.21816915864</ele>
        <time>2021-03-13T16:32:58.406Z</time>
      </trkpt>
      <trkpt lat="45.21968" lon="6.47275">
        <ele>753.96787826888</ele>
        <time>2021-03-13T16:33:04.021Z</time>
      </trkpt>
      <trkpt lat="45.21959" lon="6.47302">
        <ele>752.8073357136</ele>
        <time>2021-03-13T16:33:09.644Z</time>
      </trkpt>
      <trkpt lat="45.21959" lon="6.47302">
        <ele>751.63363617863</ele>
        <time>2021-03-13T16:33:15.267Z</time>
      </trkpt>
      <trkpt lat="45.21947" lon="6.47319">
        <ele>750.4112053651</ele>
        <time>2021-03-13T16:33:20.895Z</time>
      </trkpt>
      <trkpt lat="45.21942" lon="6.47323">
        <ele>749.10175733</ele>
        <time>2021-03-13T16:33:26.525Z</time>
      </trkpt>
      <trkpt lat="45.21942" lon="6.47323">
        <ele>747.80670031293</ele>
        <time>2021-03-13T16:33:32.155Z</time>
      </trkpt>
      <trkpt lat="45.21919" lon="6.47351">
        <ele>746.3202885079</ele>
        <time>2021-03-13T16:33:37.795Z</time>
      </trkpt>
      <trkpt lat="45.21919" lon="6.47351">
        <ele>744.96130868704</ele>
        <time>2021-03-13T16:33:43.435Z</time>
      </trkpt>
      <trkpt lat="45.21914" lon="6.47357">
        <ele>743.49395312144</ele>
        <time>2021-03-13T16:33:49.077Z</time>
      </trkpt>
      <trkpt lat="45.21904" lon="6.47347">
        <ele>741.85186149115</ele>
        <time>2021-03-13T16:33:54.723Z</time>
      </trkpt>
      <trkpt lat="45.21894" lon="6.47341">
        <ele>740.26497103295</ele>
        <time>2021-03-13T16:34:00.373Z</time>
      </trkpt>
      <trkpt lat="45.21885" lon="6.47331">
        <ele>738.64663445076</ele>
        <time>2021-03-13T16:34:06.027Z</time>
      </trkpt>
      <trkpt lat="45.21893" lon="6.47314">
        <ele>737.1983108033</ele>
        <time>2021-03-13T16:34:11.686Z</time>
      </trkpt>
      <trkpt lat="45.219" lon="6.47295">
        <ele>735.62521226157</ele>
        <time>2021-03-13T16:34:17.350Z</time>
      </trkpt>
      <trkpt lat="45.21901" lon="6.47291">
        <ele>734.02396048087</ele>
        <time>2021-03-13T16:34:23.015Z</time>
      </trkpt>
      <trkpt lat="45.21902" lon="6.47285">
        <ele>732.33873505914</ele>
        <time>2021-03-13T16:34:28.681Z</time>
      </trkpt>
      <trkpt lat="45.21908" lon="6.47273">
        <ele>730.5779114245</ele>
        <time>2021-03-13T16:34:34.351Z</time>
      </trkpt>
      <trkpt lat="45.21913" lon="6.47261">
        <ele>728.70290403963</ele>
        <time>2021-03-13T16:34:40.024Z</time>
      </trkpt>
      <trkpt lat="45.21925" lon="6.47205">
        <ele>726.46947914794</ele>
        <time>2021-03-13T16:34:45.711Z</time>
      </trkpt>
      <trkpt lat="45.21909" lon="6.47202">
        <ele>724.64831591104</ele>
        <time>2021-03-13T16:34:51.403Z</time>
      </trkpt>
      <trkpt lat="45.21893" lon="6.4722">
        <ele>723.41383115035</ele>
        <time>2021-03-13T16:34:57.102Z</time>
      </trkpt>
      <trkpt lat="45.21887" lon="6.47222">
        <ele>722.00671183255</ele>
        <time>2021-03-13T16:35:02.803Z</time>
      </trkpt>
      <trkpt lat="45.2188" lon="6.47221">
        <ele>720.60273140399</ele>
        <time>2021-03-13T16:35:08.506Z</time>
      </trkpt>
      <trkpt lat="45.21871" lon="6.47213">
        <ele>719.25312287392</ele>
        <time>2021-03-13T16:35:14.213Z</time>
      </trkpt>
      <trkpt lat="45.21866" lon="6.47207">
        <ele>718.01399004193</ele>
        <time>2021-03-13T16:35:19.922Z</time>
      </trkpt>
      <trkpt lat="45.21866" lon="6.47207">
        <ele>716.88322286226</ele>
        <time>2021-03-13T16:35:25.631Z</time>
      </trkpt>
      <trkpt lat="45.2186" lon="6.47199">
        <ele>715.73541515069</ele>
        <time>2021-03-13T16:35:31.343Z</time>
      </trkpt>
      <trkpt lat="45.2185" lon="6.47183">
        <ele>714.65235938933</ele>
        <time>2021-03-13T16:35:37.060Z</time>
      </trkpt>
      <trkpt lat="45.21813" lon="6.47241">
        <ele>713.78726289578</ele>
        <time>2021-03-13T16:35:42.796Z</time>
      </trkpt>
      <trkpt lat="45.2177" lon="6.47176">
        <ele>712.19880712316</ele>
        <time>2021-03-13T16:35:48.552Z</time>
      </trkpt>
      <trkpt lat="45.21758" lon="6.47156">
        <ele>711.77484423763</ele>
        <time>2021-03-13T16:35:54.315Z</time>
      </trkpt>
      <trkpt lat="45.21758" lon="6.47156">
        <ele>711.44307847638</ele>
        <time>2021-03-13T16:36:00.078Z</time>
      </trkpt>
      <trkpt lat="45.21753" lon="6.47168">
        <ele>711.23397514328</ele>
        <time>2021-03-13T16:36:05.844Z</time>
      </trkpt>
      <trkpt lat="45.21737" lon="6.472">
        <ele>711.06062467955</ele>
        <time>2021-03-13T16:36:11.619Z</time>
      </trkpt>
      <trkpt lat="45.21722" lon="6.47225">
        <ele>710.95756135698</ele>
        <time>2021-03-13T16:36:17.402Z</time>
      </trkpt>
      <trkpt lat="45.21712" lon="6.4724">
        <ele>710.78221307346</ele>
        <time>2021-03-13T16:36:23.190Z</time>
      </trkpt>
      <trkpt lat="45.21712" lon="6.4724">
        <ele>710.63622564217</ele>
        <time>2021-03-13T16:36:28.978Z</time>
      </trkpt>
      <trkpt lat="45.2171" lon="6.47243">
        <ele>710.51556110185</ele>
        <time>2021-03-13T16:36:34.767Z</time>
      </trkpt>
      <trkpt lat="45.21696" lon="6.47221">
        <ele>710.41348100049</ele>
        <time>2021-03-13T16:36:40.563Z</time>
      </trkpt>
      <trkpt lat="45.21695" lon="6.47217">
        <ele>710.32336460938</ele>
        <time>2021-03-13T16:36:46.360Z</time>
      </trkpt>
      <trkpt lat="45.2171" lon="6.47191">
        <ele>710.2446554271</ele>
        <time>2021-03-13T16:36:52.165Z</time>
      </trkpt>
    </trkseg>
  </trk>
</gpx>